Flight Track Log - Related Links

Times and Time Zones

All times are in EDT time to prevent confusion due to time zone crossing. See the DAL268 flight status page for this flight to view local times or setup timezone preferences in your user account.


Time Position Orientation Groundspeed Altitude Reporting Facility
EDT Latitude Longitude Course Direction KTS MPH feet Rate Location/Type
Sun 09:52:46 PM 40.6270 -73.7820 37° Northeast 84 97  Level FlightAware ADS-B
Sun 09:53:10 PM 40.6400 -73.7710 33° Northeast 168 193 533 Level FlightAware ADS-B
Sun 09:53:18 PM 40.6460 -73.7680 21° North 182 209 1,143 Level FlightAware ADS-B
Sun 09:53:31 PM 40.6550 -73.7600 34° Northeast 184 212 400 2,143 Climbing FlightAware ADS-B
Sun 09:53:46 PM 40.6660 -73.7510 32° Northeast 180 207 1,000 1,895 Climbing FlightAware ADS-B
Sun 09:53:50 PM 40.6680 -73.7480 49° Northeast 179 206 1,000 1,000 Level FlightAware ADS-B
Sun 09:53:58 PM 40.6710 -73.7400 64° Northeast 179 206 1,200 1,333 Climbing FlightAware ADS-B
Sun 09:54:08 PM 40.6740 -73.7290 70° East 187 215 1,400 1,200 Climbing FlightAware ADS-B
Sun 09:54:28 PM 40.6760 -73.7050 84° East 204 235 1,800 1,125 Climbing FlightAware ADS-B
Sun 09:54:56 PM 40.6700 -73.6680 102° East 226 260 2,300 1,200 Climbing FlightAware ADS-B
Sun 09:55:08 PM 40.6640 -73.6540 119° Southeast 230 265 2,600 1,000 Climbing FlightAware ADS-B
Sun 09:55:32 PM 40.6520 -73.6240 118° Southeast 257 296 2,900 1,227 Climbing FlightAware ADS-B
Sun 09:55:52 PM 40.6390 -73.5930 119° Southeast 268 308 3,500 1,742 Climbing FlightAware ADS-B
Sun 09:56:03 PM 40.6330 -73.5780 118° Southeast 276 318 3,800 2,333 Climbing FlightAware ADS-B
Sun 09:56:28 PM 40.6170 -73.5400 119° Southeast 283 326 4,900 2,595 Climbing FlightAware ADS-B
Sun 09:56:40 PM 40.6100 -73.5220 117° Southeast 286 329 5,400 2,400 Climbing FlightAware ADS-B
Sun 09:56:58 PM 40.5990 -73.4940 117° Southeast 292 336 6,100 2,372 Climbing FlightAware ADS-B
Sun 09:57:23 PM 40.5820 -73.4540 119° Southeast 298 343 7,100 2,368 Climbing FlightAware ADS-B
Sun 09:57:36 PM 40.5740 -73.4330 117° Southeast 302 348 7,600 2,364 Climbing FlightAware ADS-B
Sun 09:57:56 PM 40.5600 -73.3990 118° Southeast 306 352 8,400 2,455 Climbing FlightAware ADS-B
Sun 09:58:20 PM 40.5430 -73.3590 119° Southeast 310 357 9,400 2,143 Climbing FlightAware ADS-B
Sun 09:58:52 PM 40.5220 -73.3070 118° Southeast 322 371 10,400 1,391 Climbing FlightAware ADS-B
Sun 09:59:29 PM 40.4940 -73.2400 119° Southeast 358 412 11,000 986 Climbing FlightAware ADS-B
Sun 10:00:05 PM 40.4630 -73.1650 118° Southeast 391 450 11,600 985 Climbing FlightAware ADS-B
Sun 10:00:36 PM 40.4380 -73.0980 116° Southeast 422 486 12,100 1,625 Climbing FlightAware ADS-B
Sun 10:00:53 PM 40.4330 -73.0520 98° East 427 491 12,900 2,400 Climbing FlightAware ADS-B
Sun 10:01:21 PM 40.4410 -72.9790 82° East 435 501 13,900 1,964 Climbing FlightAware ADS-B
Sun 10:01:48 PM 40.4540 -72.9118 76° East 445 512 14,700 1,909 Climbing FlightAware ADS-B (KSNC)
Sun 10:02:27 PM 40.4714 -72.8051 78° East 455 524 16,000 1,784 Climbing FlightAware ADS-B (KSNC)
Sun 10:03:02 PM 40.4854 -72.7088 79° East 465 535 16,900 1,703 Climbing FlightAware ADS-B (KSNC)
Sun 10:03:41 PM 40.5004 -72.5997 80° East 472 543 18,100 1,750 Climbing FlightAware ADS-B (KSNC)
Sun 10:04:14 PM 40.5126 -72.5085 80° East 479 551 19,000 1,667 Climbing FlightAware ADS-B (KSNC)
Sun 10:04:53 PM 40.5279 -72.3929 80° East 487 560 20,100 1,500 Climbing FlightAware ADS-B (KSNC)
Sun 10:05:42 PM 40.5460 -72.2610 80° East 495 570 21,200 1,412 Climbing FlightAware ADS-B
Sun 10:06:18 PM 40.5600 -72.1530 80° East 501 577 22,100 1,457 Climbing FlightAware ADS-B
Sun 10:06:52 PM 40.5730 -72.0540 80° East 505 581 22,900 1,426 Climbing FlightAware ADS-B
Sun 10:07:59 PM 40.6010 -71.8370 80° East 516 594 24,500 1,385 Climbing FlightAware ADS-B
Sun 10:08:36 PM 40.6160 -71.7190 80° East 521 600 25,300 1,200 Climbing FlightAware ADS-B
Sun 10:09:09 PM 40.6280 -71.6210 81° East 525 604 25,900 1,075 Climbing FlightAware ADS-B
Sun 10:09:43 PM 40.6420 -71.5070 81° East 531 611 26,500 1,043 Climbing FlightAware ADS-B
Sun 10:10:18 PM 40.6570 -71.3950 80° East 536 617 27,100 1,014 Climbing FlightAware ADS-B
Sun 10:10:54 PM 40.6710 -71.2820 81° East 541 623 27,700 1,099 Climbing FlightAware ADS-B
Sun 10:11:29 PM 40.6850 -71.1670 81° East 542 624 28,400 1,250 Climbing FlightAware ADS-B
Sun 10:12:06 PM 40.6990 -71.0540 81° East 539 620 29,200 1,324 Climbing FlightAware ADS-B
Sun 10:12:37 PM 40.7110 -70.9500 81° East 537 618 29,900 1,343 Climbing FlightAware ADS-B
Sun 10:13:13 PM 40.7260 -70.8280 81° East 533 613 30,700 846 Climbing FlightAware ADS-B
Sun 10:13:55 PM 40.7400 -70.7060 81° East 533 613 31,000 243 Climbing FlightAware ADS-B
Sun 10:14:27 PM 40.7540 -70.5940 81° East 534 615 31,000  Level FlightAware ADS-B
Sun 10:15:11 PM 40.7680 -70.4740 81° East 534 615 31,000  Level FlightAware ADS-B
Sun 10:15:47 PM 40.7800 -70.3750 81° East 534 615 31,000  Level FlightAware ADS-B
Sun 10:16:24 PM 40.7920 -70.2740 81° East 534 615 31,000  Level FlightAware ADS-B
Sun 10:17:01 PM 40.8040 -70.1730 81° East 534 615 31,000  Level FlightAware ADS-B
Sun 10:17:37 PM 40.8160 -70.0740 81° East 534 615 31,000  Level FlightAware ADS-B
Sun 10:18:13 PM 40.8280 -69.9750 81° East 534 615 31,000  Level FlightAware ADS-B
Sun 10:18:49 PM 40.8400 -69.8770 81° East 534 615 31,000  Level FlightAware ADS-B
Sun 10:19:25 PM 40.8510 -69.7780 82° East 534 615 31,000  Level FlightAware ADS-B
Sun 10:20:01 PM 40.8630 -69.6790 81° East 534 615 31,000  Level FlightAware ADS-B
Sun 10:20:37 PM 40.8750 -69.5800 81° East 534 615 31,000  Level FlightAware ADS-B
Sun 10:21:13 PM 40.8870 -69.4820 81° East 534 615 31,000  Level FlightAware ADS-B
Sun 10:21:49 PM 40.8990 -69.3830 81° East 534 615 31,000  Level FlightAware ADS-B
Sun 10:22:25 PM 40.9110 -69.2840 81° East 534 615 31,000  Level FlightAware ADS-B
Sun 10:23:01 PM 40.9220 -69.1850 82° East 534 615 31,000  Level FlightAware ADS-B
Sun 10:23:37 PM 40.9340 -69.0860 81° East 534 615 31,000  Level FlightAware ADS-B
Sun 10:24:14 PM 40.9460 -68.9850 81° East 534 615 31,000 -61 Level FlightAware ADS-B
Sun 10:25:15 PM 40.9794 -68.4994 81° East 543 625 30,900 -50 Descending New York Center
Sun 10:26:15 PM 40.9986 -68.3039 83° East 543 625 30,900  Level New York Center
Sun 10:27:15 PM 41.0153 -68.1081 84° East 543 625 30,900  Level New York Center
Sun 10:28:15 PM 41.0336 -67.9119 83° East 543 625 30,900  Level New York Center
Sun 10:29:15 PM 41.0539 -67.7158 82° East 543 625 30,900 21 Level New York Center
Sun 10:32:56 PM 41.1167 -67.0000 78° East 545 627 31,000 19 Climbing New York Oceanic (ODAPS)
Sun 10:34:30 PM 41.1667 -66.7000 78° East 544 626 31,000  Level New York Oceanic (ODAPS)
Sun 10:34:47 PM 41.1722 -66.6397 82° East 548 631 31,000  Level FlightAware ADS-B
Sun 10:35:26 PM 41.1877 -66.4759 83° East 551 634 31,000  Level FlightAware ADS-B
Sun 10:36:06 PM 41.2042 -66.3425 81° East 552 635 31,000  Level FlightAware ADS-B
Sun 10:36:49 PM 41.2242 -66.1996 79° East 552 635 31,000  Level FlightAware ADS-B
Sun 10:37:19 PM 41.2377 -66.1066 79° East 552 635 31,000  Level FlightAware ADS-B
Sun 10:37:51 PM 41.2545 -65.9934 79° East 553 636 31,000  Level FlightAware ADS-B
Sun 10:38:30 PM 41.2729 -65.8699 78° East 554 638 31,000  Level FlightAware ADS-B
Sun 10:39:01 PM 41.2889 -65.7634 79° East 555 639 31,000  Level FlightAware ADS-B
Sun 10:39:34 PM 41.3051 -65.6530 79° East 555 639 31,000  Level FlightAware ADS-B
Sun 10:40:00 PM 41.3418 -65.5308 79° East 544 626 31,000  Level FlightAware Transoceanic
Sun 10:40:23 PM 41.3294 -65.4851 79° East 556 640 31,000  Level FlightAware ADS-B
Sun 10:41:02 PM 41.3410 -65.4020 79° East 555 639 31,000  Level FlightAware ADS-B
Sun 10:41:21 PM 47.4570 -64.4460 North 31,000  Level FlightAware ADS-B
Sun 10:41:26 PM 47.4590 -64.4300 80° East 31,000  Level FlightAware ADS-B
Sun 10:42:26 PM 41.3880 -65.0750 185° South 557 641 31,000  Level FlightAware ADS-B
Sun 10:42:39 PM 41.3945 -65.0283 79° East 556 640 31,000  Level FlightAware ADS-B
Sun 10:43:26 PM 41.4098 -64.9204 79° East 557 641 31,000  Level FlightAware ADS-B
Sun 10:44:06 PM 41.4330 -64.7520 80° East 556 640 31,000  Level FlightAware ADS-B
Sun 10:44:41 PM 41.4510 -64.6250 79° East 554 638 31,000  Level FlightAware ADS-B
Sun 10:45:21 PM 41.4680 -64.4910 80° East 550 633 31,000  Level FlightAware ADS-B
Sun 10:45:34 PM 41.4734 -64.4545 79° East 549 632 31,000  Level FlightAware ADS-B
Sun 10:46:26 PM 41.4950 -64.2950 80° East 547 629 31,000  Level FlightAware ADS-B
Sun 10:47:22 PM 41.5200 -64.1090 80° East 547 629 31,000  Level FlightAware ADS-B
Sun 10:47:51 PM 41.5340 -63.9970 80° East 548 631 31,000  Level FlightAware ADS-B
Sun 10:48:27 PM 41.5490 -63.8860 80° East 550 633 31,000  Level FlightAware ADS-B
Sun 10:49:03 PM 41.5630 -63.7830 80° East 550 633 31,000  Level FlightAware ADS-B
Sun 10:49:39 PM 41.5760 -63.6800 80° East 550 633 31,000  Level FlightAware ADS-B
Sun 10:50:11 PM 41.5930 -63.5420 81° East 550 633 31,000  Level FlightAware ADS-B
Sun 10:50:48 PM 41.6090 -63.4180 80° East 550 633 31,000  Level FlightAware ADS-B
Sun 10:51:21 PM 41.6230 -63.2980 81° East 548 631 31,000  Level FlightAware ADS-B
Sun 10:52:09 PM 41.6410 -63.1480 81° East 547 629 31,000  Level FlightAware ADS-B
Sun 10:52:46 PM 41.6590 -63.0110 80° East 547 629 31,000  Level FlightAware ADS-B
Sun 10:53:26 PM 41.6720 -62.8990 81° East 550 633 31,000  Level FlightAware ADS-B
Sun 10:53:56 PM 41.6870 -62.7790 80° East 551 634 31,000  Level FlightAware ADS-B
Sun 10:54:36 PM 41.7030 -62.6440 81° East 551 634 31,000  Level FlightAware ADS-B
Sun 10:55:15 PM 41.7160 -62.5330 81° East 551 634 31,000  Level FlightAware ADS-B
Sun 10:55:51 PM 41.7280 -62.4290 81° East 551 634 31,000  Level FlightAware ADS-B
Sun 10:56:27 PM 41.7400 -62.3260 81° East 551 634 31,000  Level FlightAware ADS-B
Sun 10:57:04 PM 41.7530 -62.2200 81° East 551 634 31,000  Level FlightAware ADS-B
Sun 10:57:40 PM 41.7650 -62.1170 81° East 551 634 31,000  Level FlightAware ADS-B
Sun 10:57:43 PM 41.7833 -62.0333 81° East 551 634 31,000  Level New York Oceanic (ODAPS)
Sun 10:59:11 PM 41.8090 -61.7100 82° East 556 640 31,000  Level FlightAware ADS-B
Sun 10:59:50 PM 41.8210 -61.5960 82° East 556 640 31,000 532 Level FlightAware ADS-B
Sun 11:00:30 PM 41.8350 -61.4640 82° East 556 640 31,700 553 Climbing FlightAware ADS-B
Sun 11:01:06 PM 41.8460 -61.3590 82° East 556 640 31,700 -200 Level FlightAware ADS-B
Sun 11:03:00 PM 41.9757 -61.0357 62° Northeast  Level Estimated
Sun 11:04:00 PM 41.9176 -60.8150 82° East 551 634 31,000  Level FlightAware Transoceanic
Sun 11:05:00 PM 41.9388 -60.6114 82° East 551 634 31,000  Level FlightAware Transoceanic
Sun 11:06:00 PM 41.9595 -60.4077 82° East 551 634 31,000  Level FlightAware Transoceanic
Sun 11:07:00 PM 41.9799 -60.2039 82° East 551 634 31,000 556 Level FlightAware Transoceanic
Sun 11:07:48 PM 42.0000 -60.0000 71° East 546 628 32,000  Climbing New York Oceanic (ODAPS)
Sun 11:08:00 PM 42.0000 -60.0000 71° East 551 634 31,000 -833 Descending FlightAware Transoceanic
Sun 11:09:00 PM 42.0484 -59.8067 71° East 551 634 31,000  Level FlightAware Transoceanic
Sun 11:10:00 PM 42.0964 -59.6131 72° East 551 634 31,000  Level FlightAware Transoceanic
Sun 11:11:00 PM 42.1441 -59.4192 72° East 551 634 31,000  Level FlightAware Transoceanic
Sun 11:12:00 PM 42.1914 -59.2250 72° East 551 634 31,000  Level FlightAware Transoceanic
Sun 11:13:00 PM 42.2385 -59.0305 72° East 551 634 31,000 500 Level FlightAware Transoceanic
Sun 11:14:00 PM 42.2852 -58.8357 72° East 546 628 32,000 500 Climbing FlightAware Transoceanic
Sun 11:15:00 PM 42.3316 -58.6406 72° East 546 628 32,000  Level FlightAware Transoceanic
Sun 11:16:00 PM 42.3777 -58.4453 72° East 546 628 32,000  Level FlightAware Transoceanic
Sun 11:17:00 PM 42.4234 -58.2496 73° East 546 628 32,000  Level FlightAware Transoceanic
Sun 11:18:00 PM 42.4688 -58.0537 73° East 546 628 32,000  Level FlightAware Transoceanic
Sun 11:18:48 PM 42.4833 -58.0167 73° East 543 625 32,000  Level New York Oceanic (ODAPS)
Sun 11:19:00 PM 42.5138 -57.8575 73° East 546 628 32,000  Level FlightAware Transoceanic
Sun 11:20:00 PM 42.5585 -57.6610 73° East 546 628 32,000  Level FlightAware Transoceanic
Sun 11:21:00 PM 42.6029 -57.4642 73° East 546 628 32,000  Level FlightAware Transoceanic
Sun 11:22:00 PM 42.6470 -57.2672 73° East 546 628 32,000  Level FlightAware Transoceanic
Sun 11:23:00 PM 42.6907 -57.0699 73° East 546 628 32,000  Level FlightAware Transoceanic
Sun 11:24:00 PM 42.7461 -56.8404 74° East 543 625 32,000  Level FlightAware Transoceanic
Sun 11:25:00 PM 42.7887 -56.6434 74° East 543 625 32,000  Level FlightAware Transoceanic
Sun 11:26:00 PM 42.8310 -56.4461 74° East 543 625 32,000  Level FlightAware Transoceanic
Sun 11:27:00 PM 42.8730 -56.2486 74° East 543 625 32,000  Level FlightAware Transoceanic
Sun 11:28:00 PM 42.9146 -56.0508 74° East 543 625 32,000  Level FlightAware Transoceanic
Sun 11:29:00 PM 42.9558 -55.8527 74° East 543 625 32,000  Level FlightAware Transoceanic
Sun 11:30:00 PM 42.9967 -55.6544 74° East 543 625 32,000  Level FlightAware Transoceanic
Sun 11:31:00 PM 43.0373 -55.4558 74° East 543 625 32,000  Level FlightAware Transoceanic
Sun 11:32:00 PM 43.0776 -55.2569 75° East 543 625 32,000  Level FlightAware Transoceanic
Sun 11:33:00 PM 43.1175 -55.0578 75° East 543 625 32,000  Level FlightAware Transoceanic
Sun 11:34:00 PM 43.1570 -54.8584 75° East 543 625 32,000  Level FlightAware Transoceanic
Sun 11:35:00 PM 43.1962 -54.6588 75° East 543 625 32,000  Level FlightAware Transoceanic
Sun 11:36:00 PM 43.2350 -54.4589 75° East 543 625 32,000  Level FlightAware Transoceanic
Sun 11:37:00 PM 43.2735 -54.2587 75° East 543 625 32,000  Level FlightAware Transoceanic
Sun 11:38:00 PM 43.3117 -54.0583 75° East 543 625 32,000  Level FlightAware Transoceanic
Sun 11:38:25 PM 43.3167 -54.0500 75° East 541 623 32,000  Level New York Oceanic (ODAPS)
Sun 11:39:00 PM 43.3495 -53.8577 76° East 543 625 32,000  Level FlightAware Transoceanic
Sun 11:40:00 PM 43.3869 -53.6568 76° East 543 625 32,000  Level FlightAware Transoceanic
Sun 11:41:00 PM 43.4240 -53.4556 76° East 543 625 32,000  Level FlightAware Transoceanic
Sun 11:42:00 PM 43.4608 -53.2542 76° East 543 625 32,000  Level FlightAware Transoceanic
Sun 11:43:00 PM 43.4972 -53.0526 76° East 543 625 32,000  Level FlightAware Transoceanic
Sun 11:44:00 PM 43.5366 -52.8448 76° East 541 623 32,000  Level FlightAware Transoceanic
Sun 11:45:00 PM 43.5721 -52.6431 76° East 541 623 32,000  Level FlightAware Transoceanic
Sun 11:46:00 PM 43.6071 -52.4411 77° East 541 623 32,000  Level FlightAware Transoceanic
Sun 11:47:00 PM 43.6418 -52.2389 77° East 541 623 32,000  Level FlightAware Transoceanic
Sun 11:48:00 PM 43.6762 -52.0365 77° East 541 623 32,000  Level FlightAware Transoceanic
Sun 11:49:00 PM 43.7102 -51.8339 77° East 541 623 32,000  Level FlightAware Transoceanic
Sun 11:50:00 PM 43.7439 -51.6310 77° East 541 623 32,000  Level FlightAware Transoceanic
Sun 11:51:00 PM 43.7771 -51.4279 77° East 541 623 32,000  Level FlightAware Transoceanic
Sun 11:52:00 PM 43.8101 -51.2246 77° East 541 623 32,000  Level FlightAware Transoceanic
Sun 11:53:00 PM 43.8426 -51.0210 78° East 541 623 32,000  Level FlightAware Transoceanic
Sun 11:54:00 PM 43.8748 -50.8173 78° East 541 623 32,000  Level FlightAware Transoceanic
Sun 11:55:00 PM 43.9067 -50.6133 78° East 541 623 32,000  Level FlightAware Transoceanic
Sun 11:56:00 PM 43.9381 -50.4091 78° East 541 623 32,000  Level FlightAware Transoceanic
Sun 11:57:00 PM 43.9692 -50.2046 78° East 541 623 32,000  Level FlightAware Transoceanic
Sun 11:58:00 PM 44.0000 -50.0000 71° East 541 623 32,000  Level FlightAware Transoceanic
Sun 11:58:43 PM 44.0000 -50.0333 90° East 690 794 32,000  Level New York Oceanic (ODAPS)
Sun 11:58:57 PM 44.0000 -50.0000 71° East 545 627 32,000  Level New York Oceanic (ODAPS)
Sun 11:59:00 PM 44.0504 -49.7991 71° East 541 623 32,000  Level FlightAware Transoceanic
Mon 12:00:00 AM 44.1004 -49.5979 71° East 541 623 32,000  Level FlightAware Transoceanic
Mon 12:01:00 AM 44.1501 -49.3963 71° East 541 623 32,000  Level FlightAware Transoceanic
Mon 12:02:00 AM 44.1994 -49.1944 71° East 541 623 32,000  Level FlightAware Transoceanic
Mon 12:03:00 AM 44.2483 -48.9922 71° East 541 623 32,000  Level FlightAware Transoceanic
Mon 12:04:00 AM 44.2483 -48.9922 71° East 690 794 32,000  Level FlightAware Transoceanic
Mon 12:05:00 AM 44.2969 -48.7896 72° East 545 627 32,000  Level FlightAware Transoceanic
Mon 12:06:00 AM 44.3451 -48.5867 72° East 545 627 32,000  Level FlightAware Transoceanic
Mon 12:07:00 AM 44.3930 -48.3834 72° East 545 627 32,000  Level FlightAware Transoceanic
Mon 12:08:00 AM 44.4406 -48.1799 72° East 545 627 32,000  Level FlightAware Transoceanic
Mon 12:09:00 AM 44.4877 -47.9760 72° East 545 627 32,000  Level FlightAware Transoceanic
Mon 12:10:00 AM 44.5345 -47.7717 72° East 545 627 32,000  Level FlightAware Transoceanic
Mon 12:11:00 AM 44.5809 -47.5672 72° East 545 627 32,000  Level FlightAware Transoceanic
Mon 12:12:00 AM 44.6270 -47.3623 73° East 545 627 32,000  Level FlightAware Transoceanic
Mon 12:13:00 AM 44.6727 -47.1571 73° East 545 627 32,000  Level FlightAware Transoceanic
Mon 12:14:00 AM 44.7180 -46.9515 73° East 545 627 32,000  Level FlightAware Transoceanic
Mon 12:15:00 AM 44.7630 -46.7457 73° East 545 627 32,000  Level FlightAware Transoceanic
Mon 12:16:00 AM 44.8075 -46.5395 73° East 545 627 32,000  Level FlightAware Transoceanic
Mon 12:17:00 AM 44.8518 -46.3330 73° East 545 627 32,000  Level FlightAware Transoceanic
Mon 12:18:00 AM 44.8956 -46.1262 73° East 545 627 32,000  Level FlightAware Transoceanic
Mon 12:19:00 AM 44.9391 -45.9191 74° East 545 627 32,000  Level FlightAware Transoceanic
Mon 12:20:00 AM 44.9822 -45.7117 74° East 545 627 32,000  Level FlightAware Transoceanic
Mon 12:21:00 AM 45.0249 -45.5039 74° East 545 627 32,000  Level FlightAware Transoceanic
Mon 12:22:00 AM 45.0672 -45.2959 74° East 545 627 32,000  Level FlightAware Transoceanic
Mon 12:23:00 AM 45.1092 -45.0875 74° East 545 627 32,000  Level FlightAware Transoceanic
Mon 12:24:00 AM 45.1508 -44.8788 74° East 545 627 32,000  Level FlightAware Transoceanic
Mon 12:25:00 AM 45.1920 -44.6699 74° East 545 627 32,000  Level FlightAware Transoceanic
Mon 12:26:00 AM 45.2328 -44.4606 75° East 545 627 32,000  Level FlightAware Transoceanic
Mon 12:27:00 AM 45.2732 -44.2510 75° East 545 627 32,000  Level FlightAware Transoceanic
Mon 12:28:00 AM 45.3133 -44.0411 75° East 545 627 32,000  Level FlightAware Transoceanic
Mon 12:29:00 AM 45.3530 -43.8310 75° East 545 627 32,000  Level FlightAware Transoceanic
Mon 12:30:00 AM 45.3922 -43.6205 75° East 545 627 32,000  Level FlightAware Transoceanic
Mon 12:31:00 AM 45.4311 -43.4098 75° East 545 627 32,000  Level FlightAware Transoceanic
Mon 12:32:00 AM 45.4696 -43.1987 75° East 545 627 32,000  Level FlightAware Transoceanic
Mon 12:33:00 AM 45.5078 -42.9874 76° East 545 627 32,000  Level FlightAware Transoceanic
Mon 12:34:00 AM 45.5455 -42.7758 76° East 545 627 32,000  Level FlightAware Transoceanic
Mon 12:35:00 AM 45.5828 -42.5639 76° East 545 627 32,000  Level FlightAware Transoceanic
Mon 12:36:00 AM 45.6198 -42.3517 76° East 545 627 32,000  Level FlightAware Transoceanic
Mon 12:37:00 AM 45.6563 -42.1393 76° East 545 627 32,000  Level FlightAware Transoceanic
Mon 12:38:00 AM 45.6925 -41.9266 76° East 545 627 32,000  Level FlightAware Transoceanic
Mon 12:39:00 AM 45.7282 -41.7136 77° East 545 627 32,000  Level FlightAware Transoceanic
Mon 12:40:00 AM 45.7636 -41.5003 77° East 545 627 32,000  Level FlightAware Transoceanic
Mon 12:41:00 AM 45.7986 -41.2868 77° East 545 627 32,000  Level FlightAware Transoceanic
Mon 12:42:00 AM 45.8331 -41.0729 77° East 545 627 32,000  Level FlightAware Transoceanic
Mon 12:43:00 AM 45.8673 -40.8589 77° East 545 627 32,000  Level FlightAware Transoceanic
Mon 12:44:00 AM 45.9011 -40.6446 77° East 545 627 32,000  Level FlightAware Transoceanic
Mon 12:45:00 AM 45.9345 -40.4300 77° East 545 627 32,000  Level FlightAware Transoceanic
Mon 12:46:00 AM 45.9674 -40.2151 78° East 545 627 32,000  Level FlightAware Transoceanic
Mon 12:47:00 AM 46.0000 -40.0000 70° East 545 627 32,000  Level FlightAware Transoceanic
Mon 12:48:00 AM 46.0525 -39.7909 70° East 545 627 32,000  Level FlightAware Transoceanic
Mon 12:49:00 AM 46.1047 -39.5815 70° East 545 627 32,000  Level FlightAware Transoceanic
Mon 12:50:00 AM 46.1564 -39.3716 70° East 545 627 32,000  Level FlightAware Transoceanic
Mon 12:51:00 AM 46.2078 -39.1613 71° East 545 627 32,000  Level FlightAware Transoceanic
Mon 12:52:00 AM 46.2588 -38.9507 71° East 545 627 32,000  Level FlightAware Transoceanic
Mon 12:53:00 AM 46.3094 -38.7396 71° East 545 627 32,000  Level FlightAware Transoceanic
Mon 12:54:00 AM 46.3596 -38.5282 71° East 545 627 32,000  Level FlightAware Transoceanic
Mon 12:55:00 AM 46.4094 -38.3164 71° East 545 627 32,000  Level FlightAware Transoceanic
Mon 12:56:00 AM 46.4588 -38.1042 71° East 545 627 32,000  Level FlightAware Transoceanic
Mon 12:57:00 AM 46.5079 -37.8916 72° East 545 627 32,000  Level FlightAware Transoceanic
Mon 12:58:00 AM 46.5565 -37.6786 72° East 545 627 32,000  Level FlightAware Transoceanic
Mon 12:59:00 AM 46.6048 -37.4653 72° East 545 627 32,000  Level FlightAware Transoceanic
Mon 01:00:00 AM 46.6526 -37.2515 72° East 545 627 32,000  Level FlightAware Transoceanic
Mon 01:01:00 AM 46.7000 -37.0374 72° East 545 627 32,000  Level FlightAware Transoceanic
Mon 01:02:00 AM 46.7471 -36.8229 72° East 545 627 32,000  Level FlightAware Transoceanic
Mon 01:03:00 AM 46.7937 -36.6081 72° East 545 627 32,000  Level FlightAware Transoceanic
Mon 01:04:00 AM 46.8400 -36.3929 73° East 545 627 32,000  Level FlightAware Transoceanic
Mon 01:05:00 AM 46.8858 -36.1773 73° East 545 627 32,000  Level FlightAware Transoceanic
Mon 01:06:00 AM 46.9313 -35.9613 73° East 545 627 32,000  Level FlightAware Transoceanic
Mon 01:07:00 AM 46.9763 -35.7450 73° East 545 627 32,000  Level FlightAware Transoceanic
Mon 01:08:00 AM 47.0209 -35.5283 73° East 545 627 32,000  Level FlightAware Transoceanic
Mon 01:09:00 AM 47.0651 -35.3112 73° East 545 627 32,000  Level FlightAware Transoceanic
Mon 01:10:00 AM 47.1089 -35.0938 74° East 545 627 32,000  Level FlightAware Transoceanic
Mon 01:11:00 AM 47.1523 -34.8761 74° East 545 627 32,000  Level FlightAware Transoceanic
Mon 01:12:00 AM 47.1953 -34.6579 74° East 545 627 32,000  Level FlightAware Transoceanic
Mon 01:13:00 AM 47.2378 -34.4395 74° East 545 627 32,000  Level FlightAware Transoceanic
Mon 01:14:00 AM 47.2800 -34.2206 74° East 545 627 32,000  Level FlightAware Transoceanic
Mon 01:15:00 AM 47.3217 -34.0015 74° East 545 627 32,000  Level FlightAware Transoceanic
Mon 01:16:00 AM 47.3630 -33.7820 75° East 545 627 32,000  Level FlightAware Transoceanic
Mon 01:17:00 AM 47.4039 -33.5621 75° East 545 627 32,000  Level FlightAware Transoceanic
Mon 01:18:00 AM 47.4444 -33.3419 75° East 545 627 32,000  Level FlightAware Transoceanic
Mon 01:19:00 AM 47.4844 -33.1214 75° East 545 627 32,000  Level FlightAware Transoceanic
Mon 01:20:00 AM 47.5240 -32.9005 75° East 545 627 32,000  Level FlightAware Transoceanic
Mon 01:21:00 AM 47.5632 -32.6793 75° East 545 627 32,000  Level FlightAware Transoceanic
Mon 01:22:00 AM 47.6020 -32.4578 76° East 545 627 32,000  Level FlightAware Transoceanic
Mon 01:23:00 AM 47.6403 -32.2359 76° East 545 627 32,000  Level FlightAware Transoceanic
Mon 01:24:00 AM 47.6782 -32.0137 76° East 545 627 32,000  Level FlightAware Transoceanic
Mon 01:25:00 AM 47.7157 -31.7912 76° East 545 627 32,000  Level FlightAware Transoceanic
Mon 01:26:00 AM 47.7528 -31.5684 76° East 545 627 32,000  Level FlightAware Transoceanic
Mon 01:27:00 AM 47.7894 -31.3453 76° East 545 627 32,000  Level FlightAware Transoceanic
Mon 01:28:00 AM 47.8256 -31.1218 77° East 545 627 32,000  Level FlightAware Transoceanic
Mon 01:29:00 AM 47.8613 -30.8981 77° East 545 627 32,000  Level FlightAware Transoceanic
Mon 01:30:00 AM 47.8967 -30.6740 77° East 545 627 32,000  Level FlightAware Transoceanic
Mon 01:31:00 AM 47.9315 -30.4496 77° East 545 627 32,000  Level FlightAware Transoceanic
Mon 01:32:00 AM 47.9660 -30.2250 77° East 545 627 32,000 11 Level FlightAware Transoceanic
Mon 01:33:00 AM 47.9826 -30.0102 83° East  Level Estimated
Mon 01:34:00 AM 47.9987 -29.7953 84° East  Level Estimated
Mon 01:35:00 AM 48.0145 -29.5803 84° East  Level Estimated
Mon 01:36:00 AM 48.0299 -29.3655 84° East  Level Estimated
Mon 01:37:00 AM 48.0448 -29.1506 84° East  Level Estimated
Mon 01:38:00 AM 48.0593 -28.9355 84° East  Level Estimated
Mon 01:39:00 AM 48.0735 -28.7204 84° East  Level Estimated
Mon 01:40:00 AM 48.0872 -28.5051 84° East  Level Estimated
Mon 01:41:00 AM 48.1006 -28.2897 85° East  Level Estimated
Mon 01:42:00 AM 48.1135 -28.0742 85° East  Level Estimated
Mon 01:43:00 AM 48.1260 -27.8586 85° East  Level Estimated
Mon 01:44:00 AM 48.1381 -27.6429 85° East  Level Estimated
Mon 01:45:00 AM 48.1499 -27.4271 85° East  Level Estimated
Mon 01:46:00 AM 48.1612 -27.2112 85° East  Level Estimated
Mon 01:47:00 AM 48.1721 -26.9952 86° East  Level Estimated
Mon 01:48:00 AM 48.1826 -26.7791 86° East  Level Estimated
Mon 01:49:00 AM 48.1927 -26.5629 86° East  Level Estimated
Mon 01:50:00 AM 48.2024 -26.3466 86° East  Level Estimated
Mon 01:51:00 AM 48.2117 -26.1303 86° East  Level Estimated
Mon 01:52:00 AM 48.2206 -25.9139 86° East  Level Estimated
Mon 01:53:00 AM 48.2291 -25.6974 87° East  Level Estimated
Mon 01:54:00 AM 48.2372 -25.4808 87° East  Level Estimated
Mon 01:55:00 AM 48.2449 -25.2642 87° East  Level Estimated
Mon 01:56:00 AM 48.2521 -25.0475 87° East  Level Estimated
Mon 01:57:00 AM 48.2590 -24.8307 87° East  Level Estimated
Mon 01:58:00 AM 48.2654 -24.6139 87° East  Level Estimated
Mon 01:59:00 AM 48.2715 -24.3971 88° East  Level Estimated
Mon 02:00:00 AM 48.2771 -24.1802 88° East  Level Estimated
Mon 02:01:00 AM 48.2823 -23.9632 88° East  Level Estimated
Mon 02:02:00 AM 48.2871 -23.7462 88° East  Level Estimated
Mon 02:03:00 AM 48.2915 -23.5292 88° East  Level Estimated
Mon 02:04:00 AM 48.2956 -23.3121 88° East  Level Estimated
Mon 02:05:00 AM 48.2991 -23.0950 88° East  Level Estimated
Mon 02:06:00 AM 48.3023 -22.8778 89° East  Level Estimated
Mon 02:07:00 AM 48.3051 -22.6607 89° East  Level Estimated
Mon 02:08:00 AM 48.3074 -22.4435 89° East  Level Estimated
Mon 02:09:00 AM 48.3094 -22.2263 89° East  Level Estimated
Mon 02:10:00 AM 48.3110 -22.0091 89° East  Level Estimated
Mon 02:11:00 AM 48.3121 -21.7919 89° East  Level Estimated
Mon 02:12:00 AM 48.3128 -21.5746 90° East  Level Estimated
Mon 02:13:00 AM 48.3131 -21.3574 90° East  Level Estimated
Mon 02:14:00 AM 48.3131 -21.1402 90° East  Level Estimated
Mon 02:15:00 AM 48.3126 -20.9229 90° East  Level Estimated
Mon 02:16:00 AM 48.3116 -20.7057 90° East  Level Estimated
Mon 02:17:00 AM 48.3103 -20.4885 90° East  Level Estimated
Mon 02:18:00 AM 48.3086 -20.2712 91° East  Level Estimated
Mon 02:19:00 AM 48.3065 -20.0541 91° East  Level Estimated
Mon 02:20:00 AM 48.3039 -19.8373 91° East  Level Estimated
Mon 02:21:00 AM 48.3010 -19.6205 91° East  Level Estimated
Mon 02:22:00 AM 48.2976 -19.4037 91° East  Level Estimated
Mon 02:23:00 AM 48.2939 -19.1870 91° East  Level Estimated
Mon 02:24:00 AM 48.2897 -18.9703 92° East  Level Estimated
Mon 02:25:00 AM 48.2851 -18.7537 92° East  Level Estimated
Mon 02:26:00 AM 48.2802 -18.5371 92° East  Level Estimated
Mon 02:27:00 AM 48.2748 -18.3205 92° East  Level Estimated
Mon 02:28:00 AM 48.2690 -18.1040 92° East  Level Estimated
Mon 02:29:00 AM 48.2628 -17.8875 92° East  Level Estimated
Mon 02:30:00 AM 48.2562 -17.6711 93° East  Level Estimated
Mon 02:31:00 AM 48.2491 -17.4547 93° East  Level Estimated
Mon 02:32:00 AM 48.2417 -17.2384 93° East  Level Estimated
Mon 02:33:00 AM 48.2339 -17.0222 93° East  Level Estimated
Mon 02:34:00 AM 48.2257 -16.8060 93° East  Level Estimated
Mon 02:35:00 AM 48.2170 -16.5900 93° East  Level Estimated
Mon 02:36:00 AM 48.2080 -16.3739 94° East  Level Estimated
Mon 02:37:00 AM 48.1986 -16.1580 94° East  Level Estimated
Mon 02:38:00 AM 48.1887 -15.9421 94° East  Level Estimated
Mon 02:39:00 AM 48.1785 -15.7264 94° East  Level Estimated
Mon 02:40:00 AM 48.1678 -15.5107 94° East  Level Estimated
Mon 02:41:00 AM 48.1567 -15.2951 94° East  Level Estimated
Mon 02:42:00 AM 48.1453 -15.0796 94° East  Level Estimated
Mon 02:43:00 AM 48.1334 -14.8642 95° East  Level Estimated
Mon 02:44:00 AM 48.1212 -14.6489 95° East  Level Estimated
Mon 02:45:00 AM 48.1085 -14.4337 95° East  Level Estimated
Mon 02:46:00 AM 48.0954 -14.2186 95° East  Level Estimated
Mon 02:47:00 AM 48.0820 -14.0036 95° East  Level Estimated
Mon 02:48:00 AM 48.0681 -13.7887 95° East  Level Estimated
Mon 02:49:00 AM 48.0538 -13.5740 96° East  Level Estimated
Mon 02:50:00 AM 48.0391 -13.3594 96° East  Level Estimated
Mon 02:51:00 AM 48.0241 -13.1449 96° East  Level Estimated
Mon 02:52:00 AM 48.0086 -12.9305 96° East  Level Estimated
Mon 02:53:00 AM 47.9927 -12.7163 96° East  Level Estimated
Mon 02:54:00 AM 47.9765 -12.5022 96° East  Level Estimated
Mon 02:55:00 AM 47.9598 -12.2882 97° East  Level Estimated
Mon 02:56:00 AM 47.9427 -12.0744 97° East  Level Estimated
Mon 02:57:00 AM 47.9253 -11.8607 97° East  Level Estimated
Mon 02:58:00 AM 47.9074 -11.6471 97° East  Level Estimated
Mon 02:58:06 AM 49.1920 -10.9260 97° East 525 604 33,000  Level FlightAware ADS-B
Mon 02:58:45 AM 49.1800 -10.8040 99° East 525 604 33,000  Level FlightAware ADS-B
Mon 02:59:21 AM 49.1700 -10.6920 98° East 525 604 33,000  Level FlightAware ADS-B
Mon 02:59:57 AM 49.1600 -10.5790 98° East 525 604 33,000  Level FlightAware ADS-B
Mon 03:00:33 AM 49.1490 -10.4670 98° East 525 604 33,000  Level FlightAware ADS-B
Mon 03:01:09 AM 49.1390 -10.3540 98° East 525 604 33,000  Level FlightAware ADS-B
Mon 03:01:45 AM 49.1290 -10.2420 98° East 525 604 33,000  Level FlightAware ADS-B
Mon 03:02:21 AM 49.1180 -10.1290 98° East 525 604 33,000  Level FlightAware ADS-B
Mon 03:02:57 AM 49.1080 -10.0170 98° East 525 604 33,000  Level FlightAware ADS-B
Mon 03:03:34 AM 49.0970 -9.9010 98° East 525 604 33,000  Level FlightAware ADS-B
Mon 03:04:08 AM 49.0540 -9.6130 103° East 520 598 33,000 254 Level FlightAware ADS-B
Mon 03:04:45 AM 49.0400 -9.4830 99° East 520 598 33,300 985 Climbing FlightAware ADS-B
Mon 03:05:15 AM 49.0270 -9.3680 100° East 517 595 34,100 1,524 Climbing FlightAware ADS-B
Mon 03:05:48 AM 49.0230 -9.3360 101° East 516 594 34,900 740 Climbing FlightAware ADS-B
Mon 03:06:28 AM 48.9970 -9.1110 100° East 515 593 35,000  Climbing FlightAware ADS-B
Mon 03:07:08 AM 48.9830 -8.9677 100° East 498 573 34,900  Descending FlightAware UK
Mon 03:07:09 AM 48.9820 -8.9800 100° East 514 592 35,000 167 Climbing FlightAware ADS-B
Mon 03:07:44 AM 48.9650 -8.8380 100° East 513 590 35,000  Level FlightAware ADS-B
Mon 03:08:19 AM 48.9520 -8.7280 100° East 512 589 35,000  Level FlightAware ADS-B
Mon 03:09:02 AM 48.9320 -8.5620 100° East 511 588 35,000  Level FlightAware ADS-B
Mon 03:09:38 AM 48.9170 -8.4390 100° East 509 586 35,000 -91 Level FlightAware ADS-B
Mon 03:10:08 AM 48.9003 -8.3240 100° East 496 571 34,900  Descending FlightAware UK
Mon 03:10:11 AM 48.9030 -8.3230 100° East 508 585 35,000 162 Climbing FlightAware ADS-B
Mon 03:10:45 AM 48.8890 -8.2040 100° East 507 583 35,000  Level FlightAware ADS-B
Mon 03:11:21 AM 48.8810 -8.1410 101° East 507 583 35,000  Level FlightAware ADS-B
Mon 03:11:35 AM 48.8600 -8.0360 107° East 504 580 35,000 -128 Level FlightAware ADS-B
Mon 03:12:08 AM 48.8274 -7.9170 107° East 494 568 34,900  Descending FlightAware UK
Mon 03:12:12 AM 48.8270 -7.9110 107° East 504 580 35,000 167 Climbing FlightAware ADS-B
Mon 03:12:44 AM 48.7990 -7.8020 111° Southeast 504 580 35,000  Level FlightAware ADS-B
Mon 03:13:22 AM 48.7700 -7.6830 110° East 505 581 35,000  Level FlightAware ADS-B
Mon 03:13:58 AM 48.7410 -7.5590 109° East 506 582 35,000  Level FlightAware ADS-B
Mon 03:14:29 AM 48.7150 -7.4600 112° Southeast 506 582 35,000  Level FlightAware ADS-B
Mon 03:15:06 AM 48.6840 -7.3380 111° Southeast 507 583 35,000 -87 Level FlightAware ADS-B
Mon 03:15:38 AM 48.6542 -7.2240 111° Southeast 496 571 34,900  Descending FlightAware UK
Mon 03:15:42 AM 48.6520 -7.2160 111° Southeast 507 583 35,000 150 Climbing FlightAware ADS-B
Mon 03:16:18 AM 48.6210 -7.0980 112° Southeast 507 583 35,000  Level FlightAware ADS-B
Mon 03:16:50 AM 48.5940 -6.9920 111° Southeast 507 583 35,000  Level FlightAware ADS-B
Mon 03:17:27 AM 48.5620 -6.8740 112° Southeast 507 583 35,000  Level FlightAware ADS-B
Mon 03:18:02 AM 48.5320 -6.7590 111° Southeast 507 583 35,000  Level FlightAware ADS-B
Mon 03:18:34 AM 48.5030 -6.6510 112° Southeast 507 583 35,000 -90 Level FlightAware ADS-B
Mon 03:19:09 AM 48.4716 -6.5328 112° Southeast 498 573 34,900  Descending FlightAware UK
Mon 03:19:11 AM 48.4710 -6.5330 112° Southeast 506 582 35,000 158 Climbing FlightAware ADS-B
Mon 03:19:47 AM 48.4390 -6.4120 112° Southeast 507 583 35,000  Level FlightAware ADS-B
Mon 03:20:18 AM 48.4110 -6.3110 113° Southeast 507 583 35,000  Level FlightAware ADS-B
Mon 03:20:56 AM 48.3790 -6.1940 112° Southeast 507 583 35,000  Level FlightAware ADS-B
Mon 03:21:31 AM 48.3460 -6.0730 112° Southeast 508 585 35,000  Level FlightAware ADS-B
Mon 03:22:06 AM 48.3150 -5.9620 113° Southeast 509 586 35,000  Level FlightAware ADS-B
Mon 03:22:39 AM 48.2850 -5.8510 112° Southeast 509 586 35,000 -87 Level FlightAware ADS-B
Mon 03:23:15 AM 48.2509 -5.7290 112° Southeast 498 573 34,900  Descending FlightAware UK
Mon 03:23:15 AM 48.2530 -5.7340 112° Southeast 509 586 35,000  Climbing FlightAware ADS-B
Mon 03:23:45 AM 48.2236 -5.6314 112° Southeast 498 573 34,900  Descending FlightAware UK
Mon 03:23:48 AM 48.2230 -5.6300 112° Southeast 509 586 35,000 143 Climbing FlightAware ADS-B
Mon 03:24:27 AM 48.1880 -5.5030 112° Southeast 509 586 35,000  Level FlightAware ADS-B
Mon 03:25:04 AM 48.1530 -5.3830 114° Southeast 510 587 35,000  Level FlightAware ADS-B
Mon 03:25:36 AM 48.1230 -5.2760 113° Southeast 509 586 35,000  Level FlightAware ADS-B
Mon 03:26:11 AM 48.0910 -5.1630 113° Southeast 508 585 35,000  Level FlightAware ADS-B
Mon 03:26:48 AM 48.0570 -5.0430 113° Southeast 508 585 35,000  Level FlightAware ADS-B
Mon 03:27:19 AM 48.0300 -4.9500 113° Southeast 508 585 35,000  Level FlightAware ADS-B
Mon 03:27:55 AM 47.9950 -4.8310 114° Southeast 507 583 35,000  Level FlightAware ADS-B
Mon 03:28:32 AM 47.9610 -4.7130 113° Southeast 507 583 35,000  Level FlightAware ADS-B
Mon 03:29:06 AM 47.9290 -4.6030 113° Southeast 507 583 35,000  Level FlightAware ADS-B
Mon 03:29:41 AM 47.8950 -4.4850 113° Southeast 507 583 35,000  Level FlightAware ADS-B
Mon 03:30:14 AM 47.8640 -4.3830 114° Southeast 506 582 35,000  Level FlightAware ADS-B
Mon 03:30:51 AM 47.8300 -4.2650 113° Southeast 505 581 35,000  Level FlightAware ADS-B
Mon 03:31:27 AM 47.7970 -4.1540 114° Southeast 504 580 35,000  Level FlightAware ADS-B
Mon 03:31:58 AM 47.7660 -4.0500 114° Southeast 504 580 35,000  Level FlightAware ADS-B
Mon 03:32:18 AM 47.7545 -4.0119 114° Southeast 504 580 35,000  Level FlightAware ADS-B
Mon 03:33:12 AM 47.6960 -3.8200 114° Southeast 501 577 35,000  Level FlightAware ADS-B
Mon 03:33:25 AM 47.6848 -3.7823 114° Southeast 501 577 35,000  Level FlightAware ADS-B
Mon 03:34:18 AM 47.6330 -3.6100 114° Southeast 499 574 35,000  Level FlightAware ADS-B
Mon 03:34:55 AM 47.5990 -3.4980 114° Southeast 499 574 35,000  Level FlightAware ADS-B
Mon 03:35:30 AM 47.5660 -3.3900 114° Southeast 499 574 35,000  Level FlightAware ADS-B
Mon 03:36:07 AM 47.5300 -3.2720 114° Southeast 498 573 35,000  Level FlightAware ADS-B
Mon 03:36:42 AM 47.4990 -3.1730 115° Southeast 498 573 35,000  Level FlightAware ADS-B
Mon 03:37:15 AM 47.4670 -3.0710 115° Southeast 498 573 35,000  Level FlightAware ADS-B
Mon 03:37:37 AM 47.4506 -3.0184 115° Southeast 498 573 35,000  Level FlightAware ADS-B
Mon 03:38:26 AM 47.3980 -2.8490 115° Southeast 496 571 35,000  Level FlightAware ADS-B
Mon 03:38:37 AM 47.3854 -2.8092 115° Southeast 497 572 35,000  Level FlightAware ADS-B
Mon 03:39:34 AM 47.3307 -2.6374 115° Southeast 498 573 35,000  Level FlightAware ADS-B
Mon 03:40:10 AM 47.2970 -2.5300 115° Southeast 497 572 35,000  Level FlightAware ADS-B
Mon 03:40:38 AM 47.2686 -2.4416 115° Southeast 497 572 35,000  Level FlightAware ADS-B
Mon 03:41:18 AM 47.2297 -2.3193 115° Southeast 497 572 35,000  Level FlightAware ADS-B
Mon 03:41:56 AM 47.1930 -2.2060 115° Southeast 495 570 35,000  Level FlightAware ADS-B
Mon 03:42:29 AM 47.1598 -2.1003 115° Southeast 495 570 35,000  Level FlightAware ADS-B
Mon 03:43:08 AM 47.1230 -1.9850 115° Southeast 494 568 35,000  Level FlightAware ADS-B
Mon 03:43:38 AM 47.0922 -1.8944 116° Southeast 495 570 35,000  Level FlightAware ADS-B
Mon 03:44:14 AM 47.0570 -1.7850 115° Southeast 495 570 35,000  Level FlightAware ADS-B
Mon 03:44:37 AM 47.0332 -1.7129 116° Southeast 496 571 35,000  Level FlightAware ADS-B
Mon 03:45:29 AM 46.9820 -1.5560 116° Southeast 497 572 35,000  Level FlightAware ADS-B
Mon 03:45:34 AM 46.9765 -1.5406 118° Southeast 497 572 35,000  Level FlightAware ADS-B
Mon 03:46:35 AM 46.9154 -1.3558 116° Southeast 499 574 35,000  Level FlightAware ADS-B
Mon 03:47:13 AM 46.8770 -1.2410 116° Southeast 499 574 35,000  Level FlightAware ADS-B
Mon 03:47:37 AM 46.8534 -1.1711 116° Southeast 499 574 35,000  Level FlightAware ADS-B
Mon 03:48:21 AM 46.8090 -1.0380 116° Southeast 498 573 35,000  Level FlightAware ADS-B
Mon 03:48:59 AM 46.7700 -0.9240 117° Southeast 498 573 35,000  Level FlightAware ADS-B
Mon 03:49:31 AM 46.7380 -0.8280 116° Southeast 498 573 35,000  Level FlightAware ADS-B
Mon 03:50:06 AM 46.7020 -0.7190 116° Southeast 497 572 35,000  Level FlightAware ADS-B
Mon 03:50:36 AM 46.6746 -0.6276 114° Southeast 495 570 35,000  Level FlightAware ADS-B
Mon 03:51:17 AM 46.6370 -0.5050 114° Southeast 494 568 35,000  Level FlightAware ADS-B
Mon 03:51:37 AM 46.6189 -0.4414 113° Southeast 495 570 35,000  Level FlightAware ADS-B
Mon 03:52:25 AM 46.5760 -0.2980 113° Southeast 493 567 35,000  Level FlightAware ADS-B
Mon 03:52:37 AM 46.5637 -0.2587 114° Southeast 494 568 35,000  Level FlightAware ADS-B
Mon 03:53:39 AM 46.5076 -0.0739 114° Southeast 495 570 35,000  Level FlightAware ADS-B
Mon 03:54:09 AM 46.4797 0.0201 113° Southeast 494 568 35,000  Level FlightAware ADS-B
Mon 03:54:39 AM 46.4516 0.1110 114° Southeast 494 568 35,000  Level FlightAware ADS-B
Mon 03:55:22 AM 46.4120 0.2380 114° Southeast 494 568 35,000  Level FlightAware ADS-B
Mon 03:55:39 AM 46.3963 0.2921 113° Southeast 493 567 35,000  Level FlightAware ADS-B
Mon 03:56:39 AM 46.3404 0.4727 114° Southeast 492 566 35,000  Level FlightAware ADS-B
Mon 03:57:39 AM 46.2848 0.6520 114° Southeast 491 565 35,000  Level FlightAware ADS-B
Mon 03:58:22 AM 46.2450 0.7770 115° Southeast 491 565 35,000  Level FlightAware ADS-B
Mon 03:58:39 AM 46.2387 0.7982 113° Southeast 491 565 35,000  Level FlightAware ADS-B
Mon 03:59:09 AM 46.2004 0.9207 114° Southeast 491 565 35,000  Level FlightAware ADS-B
Mon 03:59:39 AM 46.1724 1.0097 114° Southeast 491 565 35,000  Level FlightAware ADS-B
Mon 04:00:40 AM 46.1146 1.1911 115° Southeast 490 564 35,000  Level FlightAware ADS-B
Mon 04:01:18 AM 46.0800 1.3010 114° Southeast 490 564 35,000  Level FlightAware ADS-B
Mon 04:01:37 AM 46.0601 1.3600 116° Southeast 492 566 35,000  Level FlightAware ADS-B
Mon 04:02:09 AM 46.0299 1.4551 115° Southeast 494 568 35,000  Level FlightAware ADS-B
Mon 04:03:00 AM 45.9808 1.6066 115° Southeast 493 567 35,000  Level FlightAware ADS-B
Mon 04:03:40 AM 45.9452 1.7161 115° Southeast 493 567 35,000  Level FlightAware ADS-B
Mon 04:04:10 AM 45.9175 1.8022 115° Southeast 493 567 35,000  Level FlightAware ADS-B
Mon 04:04:55 AM 45.8700 1.9467 115° Southeast 491 565 35,000  Level FlightAware ADS-B
Mon 04:05:25 AM 45.8430 2.0290 115° Southeast 489 563 35,000  Level FlightAware ADS-B
Mon 04:05:38 AM 45.8307 2.0669 115° Southeast 489 563 35,000  Level FlightAware ADS-B
Mon 04:06:10 AM 45.8000 2.1600 115° Southeast 487 560 35,000  Level FlightAware ADS-B
Mon 04:06:30 AM 45.7796 2.2218 115° Southeast 488 562 35,000  Level FlightAware ADS-B
Mon 04:07:09 AM 45.7406 2.3384 116° Southeast 489 563 35,000  Level FlightAware ADS-B
Mon 04:07:40 AM 45.7113 2.4259 116° Southeast 488 562 35,000  Level FlightAware ADS-B
Mon 04:08:32 AM 45.6610 2.5770 115° Southeast 487 560 35,000  Level FlightAware ADS-B
Mon 04:09:00 AM 45.6324 2.6612 116° Southeast 488 562 35,000  Level FlightAware ADS-B
Mon 04:09:40 AM 45.5950 2.7710 116° Southeast 487 560 35,000  Level FlightAware ADS-B
Mon 04:09:50 AM 45.5840 2.8030 116° Southeast 485 558 35,000  Level FlightAware ADS-B
Mon 04:10:25 AM 45.5600 2.8920 111° Southeast 481 554 35,000  Level FlightAware ADS-B
Mon 04:10:27 AM 45.5598 2.8920 177° South 481 554 35,000  Level FlightAware ADS-B
Mon 04:11:26 AM 45.5170 3.0550 111° Southeast 480 552 35,000  Level FlightAware ADS-B
Mon 04:12:02 AM 45.4780 3.1920 112° Southeast 477 549 35,000  Level FlightAware ADS-B
Mon 04:12:30 AM 45.4545 3.2737 112° Southeast 478 550 35,000  Level FlightAware ADS-B
Mon 04:13:20 AM 45.4180 3.4010 112° Southeast 476 548 35,000  Level FlightAware ADS-B
Mon 04:13:55 AM 45.3890 3.5020 112° Southeast 461 531 35,000  Level FlightAware ADS-B
Mon 04:14:25 AM 45.3590 3.6060 112° Southeast 472 543 35,000  Level FlightAware ADS-B
Mon 04:15:00 AM 45.3310 3.7030 112° Southeast 471 542 35,000  Level FlightAware ADS-B
Mon 04:15:40 AM 45.2970 3.8230 112° Southeast 470 541 35,000  Level FlightAware ADS-B
Mon 04:16:29 AM 45.2580 3.9540 113° Southeast 469 540 35,000  Level FlightAware ADS-B
Mon 04:17:04 AM 45.2270 4.0590 113° Southeast 469 540 35,000  Level FlightAware ADS-B
Mon 04:17:44 AM 45.1970 4.1650 112° Southeast 470 541 35,000  Level FlightAware ADS-B
Mon 04:18:18 AM 45.1670 4.2670 113° Southeast 471 542 35,000  Level FlightAware ADS-B
Mon 04:18:55 AM 45.1340 4.3750 113° Southeast 471 542 35,000  Level FlightAware ADS-B
Mon 04:19:25 AM 45.1040 4.4570 117° Southeast 475 547 35,000  Level FlightAware ADS-B
Mon 04:19:57 AM 45.0580 4.5350 130° Southeast 478 550 35,000  Level FlightAware ADS-B
Mon 04:20:31 AM 45.0090 4.6170 130° Southeast 477 549 35,000  Level FlightAware ADS-B
Mon 04:21:09 AM 44.9550 4.7040 131° Southeast 475 547 35,000  Level FlightAware ADS-B
Mon 04:21:39 AM 44.9110 4.7740 132° Southeast 479 551 35,000  Level FlightAware ADS-B
Mon 04:22:19 AM 44.8520 4.8710 131° Southeast 475 547 35,000  Level FlightAware ADS-B
Mon 04:22:55 AM 44.8030 4.9500 131° Southeast 474 545 35,000  Level FlightAware ADS-B
Mon 04:23:25 AM 44.7590 5.0210 131° Southeast 472 543 35,000  Level FlightAware ADS-B
Mon 04:24:03 AM 44.7040 5.1090 131° Southeast 470 541 35,000  Level FlightAware ADS-B
Mon 04:24:35 AM 44.6580 5.1820 132° Southeast 469 540 35,000  Level FlightAware ADS-B
Mon 04:25:09 AM 44.6090 5.2600 131° Southeast 469 540 35,000  Level FlightAware ADS-B
Mon 04:25:49 AM 44.5550 5.3540 129° Southeast 466 536 35,000  Level FlightAware ADS-B
Mon 04:26:21 AM 44.5150 5.4360 124° Southeast 466 536 35,000  Level FlightAware ADS-B
Mon 04:26:57 AM 44.4690 5.5250 126° Southeast 469 540 35,000  Level FlightAware ADS-B
Mon 04:27:33 AM 44.4250 5.6080 127° Southeast 472 543 35,000  Level FlightAware ADS-B
Mon 04:28:05 AM 44.3830 5.6890 126° Southeast 474 545 35,000  Level FlightAware ADS-B
Mon 04:28:41 AM 44.3360 5.7790 126° Southeast 476 548 35,000  Level FlightAware ADS-B
Mon 04:29:14 AM 44.2940 5.8620 125° Southeast 477 549 35,000  Level FlightAware ADS-B
Mon 04:29:51 AM 44.2450 5.9570 126° Southeast 475 547 35,000  Level FlightAware ADS-B
Mon 04:30:25 AM 44.2040 6.0360 126° Southeast 475 547 35,000  Level FlightAware ADS-B
Mon 04:31:03 AM 44.1530 6.1350 126° Southeast 474 545 35,000  Level FlightAware ADS-B
Mon 04:31:40 AM 44.1070 6.2220 126° Southeast 476 548 35,000  Level FlightAware ADS-B
Mon 04:32:12 AM 44.0660 6.3010 126° Southeast 477 549 35,000  Level FlightAware ADS-B
Mon 04:32:49 AM 44.0150 6.3980 126° Southeast 479 551 35,000  Level FlightAware ADS-B
Mon 04:33:21 AM 43.9740 6.4780 125° Southeast 480 552 35,000  Level FlightAware ADS-B
Mon 04:33:57 AM 43.9270 6.5680 126° Southeast 481 554 35,000  Level FlightAware ADS-B
Mon 04:34:39 AM 43.8740 6.6670 127° Southeast 482 555 35,000  Level FlightAware ADS-B
Mon 04:35:20 AM 43.8220 6.7710 125° Southeast 479 551 35,000  Level FlightAware ADS-B
Mon 04:35:55 AM 43.7810 6.8650 121° Southeast 477 549 35,000  Level FlightAware ADS-B
Mon 04:36:31 AM 43.7400 6.9550 122° Southeast 476 548 35,000  Level FlightAware ADS-B
Mon 04:37:05 AM 43.7000 7.0460 121° Southeast 475 547 35,000  Level FlightAware ADS-B
Mon 04:37:42 AM 43.6600 7.1360 122° Southeast 475 547 35,000  Level FlightAware ADS-B
Mon 04:38:22 AM 43.6110 7.2450 122° Southeast 476 548 35,000  Level FlightAware ADS-B
Mon 04:38:57 AM 43.5710 7.3350 122° Southeast 478 550 35,000  Level FlightAware ADS-B
Mon 04:39:33 AM 43.5300 7.4260 122° Southeast 480 552 35,000  Level FlightAware ADS-B
Mon 04:40:07 AM 43.4880 7.5170 122° Southeast 482 555 35,000  Level FlightAware ADS-B
Mon 04:40:42 AM 43.4470 7.6080 122° Southeast 483 556 35,000  Level FlightAware ADS-B
Mon 04:41:20 AM 43.4030 7.7070 121° Southeast 483 556 35,000  Level FlightAware ADS-B
Mon 04:41:55 AM 43.3650 7.7880 123° Southeast 483 556 35,000  Level FlightAware ADS-B
Mon 04:42:25 AM 43.3300 7.8660 122° Southeast 484 557 35,000  Level FlightAware ADS-B
Mon 04:43:06 AM 43.2770 7.9820 122° Southeast 483 556 35,000  Level FlightAware ADS-B
Mon 04:43:38 AM 43.2380 8.0650 123° Southeast 483 556 35,000  Level FlightAware ADS-B
Mon 04:44:14 AM 43.1940 8.1610 122° Southeast 484 557 35,000  Level FlightAware ADS-B
Mon 04:44:50 AM 43.1510 8.2540 122° Southeast 484 557 35,000  Level FlightAware ADS-B
Mon 04:45:23 AM 43.1120 8.3370 123° Southeast 482 555 35,000  Level FlightAware ADS-B
Mon 04:46:00 AM 43.0680 8.4320 122° Southeast 483 556 35,000  Level FlightAware ADS-B
Mon 04:46:30 AM 43.0340 8.5070 122° Southeast 484 557 35,000  Level FlightAware ADS-B
Mon 04:47:07 AM 42.9880 8.6020 123° Southeast 487 560 35,000  Level FlightAware ADS-B
Mon 04:47:43 AM 42.9440 8.6960 123° Southeast 488 562 35,000  Level FlightAware ADS-B
Mon 04:48:19 AM 42.8990 8.7940 122° Southeast 491 565 35,000  Level FlightAware ADS-B
Mon 04:48:56 AM 42.8530 8.8910 123° Southeast 492 566 35,000  Level FlightAware ADS-B
Mon 04:49:27 AM 42.8150 8.9690 124° Southeast 494 568 35,000  Level FlightAware ADS-B
Mon 04:50:04 AM 42.7710 9.0630 123° Southeast 494 568 35,000  Level FlightAware ADS-B
Mon 04:50:41 AM 42.7220 9.1650 123° Southeast 493 567 35,000  Level FlightAware ADS-B
Mon 04:51:12 AM 42.6930 9.2480 115° Southeast 495 570 35,000  Level FlightAware ADS-B
Mon 04:51:46 AM 42.6640 9.3470 112° Southeast 496 571 35,000  Level FlightAware ADS-B
Mon 04:52:24 AM 42.6300 9.4560 113° Southeast 495 570 35,000  Level FlightAware ADS-B
Mon 04:52:58 AM 42.5990 9.5520 114° Southeast 494 568 35,000  Level FlightAware ADS-B
Mon 04:53:32 AM 42.5720 9.6500 110° East 493 567 35,000  Level FlightAware ADS-B
Mon 04:54:09 AM 42.5410 9.7570 111° Southeast 494 568 35,000  Level FlightAware ADS-B
Mon 04:54:43 AM 42.5120 9.8550 112° Southeast 494 568 35,000  Level FlightAware ADS-B
Mon 04:55:18 AM 42.4820 9.9550 112° Southeast 495 570 35,000  Level FlightAware ADS-B
Mon 04:55:54 AM 42.4530 10.0560 111° Southeast 497 572 35,000  Level FlightAware ADS-B
Mon 04:56:30 AM 42.4210 10.1630 112° Southeast 499 574 35,000 529 Level FlightAware ADS-B
Mon 04:57:02 AM 42.3930 10.2560 112° Southeast 501 577 35,600 1,200 Climbing FlightAware ADS-B
Mon 04:57:40 AM 42.3600 10.3660 112° Southeast 500 575 36,400 1,167 Climbing FlightAware ADS-B
Mon 04:58:14 AM 42.3300 10.4670 112° Southeast 498 573 37,000 429 Climbing FlightAware ADS-B
Mon 04:58:50 AM 42.2990 10.5680 113° Southeast 499 574 36,900  Descending FlightAware ADS-B
Mon 04:59:22 AM 42.2710 10.6630 112° Southeast 497 572 37,000 86 Climbing FlightAware ADS-B
Mon 05:00:00 AM 42.2380 10.7730 112° Southeast 497 572 37,000  Level FlightAware ADS-B
Mon 05:00:34 AM 42.2080 10.8700 113° Southeast 500 575 37,000  Level FlightAware ADS-B
Mon 05:01:11 AM 42.1760 10.9740 113° Southeast 502 578 37,000  Level FlightAware ADS-B
Mon 05:01:42 AM 42.1490 11.0640 112° Southeast 503 579 37,000  Level FlightAware ADS-B
Mon 05:02:18 AM 42.1160 11.1710 113° Southeast 503 579 37,000  Level FlightAware ADS-B
Mon 05:02:39 AM 42.0940 11.2230 120° Southeast 498 573 37,000  Level FlightAware ADS-B
Mon 05:03:15 AM 42.0420 11.3130 128° Southeast 498 573 37,000  Level FlightAware ADS-B
Mon 05:03:50 AM 41.9890 11.3940 131° Southeast 498 573 37,000  Level FlightAware ADS-B
Mon 05:04:24 AM 41.9350 11.4740 132° Southeast 497 572 37,000  Level FlightAware ADS-B
Mon 05:05:02 AM 41.8770 11.5580 133° Southeast 495 570 37,000  Level FlightAware ADS-B
Mon 05:05:34 AM 41.8280 11.6310 132° Southeast 496 571 37,000  Level FlightAware ADS-B
Mon 05:06:07 AM 41.7770 11.7060 132° Southeast 496 571 37,000  Level FlightAware ADS-B
Mon 05:06:46 AM 41.7170 11.7950 132° Southeast 497 572 37,000  Level FlightAware ADS-B
Mon 05:07:22 AM 41.6620 11.8780 132° Southeast 497 572 37,000  Level FlightAware ADS-B
Mon 05:07:54 AM 41.6110 11.9530 132° Southeast 496 571 37,000  Level FlightAware ADS-B
Mon 05:08:29 AM 41.5580 12.0290 133° Southeast 494 568 37,000  Level FlightAware ADS-B
Mon 05:09:06 AM 41.5010 12.1120 133° Southeast 491 565 37,000  Level FlightAware ADS-B
Mon 05:09:40 AM 41.4480 12.1880 133° Southeast 490 564 37,000  Level FlightAware ADS-B
Mon 05:10:14 AM 41.3960 12.2660 132° Southeast 488 562 37,000  Level FlightAware ADS-B
Mon 05:10:50 AM 41.3420 12.3430 133° Southeast 488 562 37,000  Level FlightAware ADS-B
Mon 05:11:26 AM 41.2890 12.4200 132° Southeast 487 560 37,000  Level FlightAware ADS-B
Mon 05:11:54 AM 41.2470 12.4910 128° Southeast 494 568 37,000  Level FlightAware ADS-B
Mon 05:12:28 AM 41.2080 12.5810 120° Southeast 495 570 37,000  Level FlightAware ADS-B
Mon 05:13:05 AM 41.1660 12.6750 121° Southeast 493 567 37,000  Level FlightAware ADS-B
Mon 05:13:36 AM 41.1280 12.7570 122° Southeast 494 568 37,000  Level FlightAware ADS-B
Mon 05:14:12 AM 41.0830 12.8490 123° Southeast 495 570 37,000  Level FlightAware ADS-B
Mon 05:14:44 AM 41.0450 12.9280 123° Southeast 495 570 37,000  Level FlightAware ADS-B
Mon 05:15:24 AM 40.9940 13.0320 123° Southeast 495 570 37,000  Level FlightAware ADS-B
Mon 05:15:56 AM 40.9560 13.1120 122° Southeast 497 572 37,000  Level FlightAware ADS-B
Mon 05:16:34 AM 40.9110 13.2110 121° Southeast 498 573 37,000  Level FlightAware ADS-B
Mon 05:17:10 AM 40.8670 13.3050 122° Southeast 499 574 37,000  Level FlightAware ADS-B
Mon 05:17:40 AM 40.8300 13.3830 122° Southeast 501 577 37,000  Level FlightAware ADS-B
Mon 05:18:18 AM 40.7840 13.4820 122° Southeast 501 577 37,000  Level FlightAware ADS-B
Mon 05:18:54 AM 40.7400 13.5750 122° Southeast 502 578 37,000  Level FlightAware ADS-B
Mon 05:19:26 AM 40.7010 13.6580 122° Southeast 503 579 37,000  Level FlightAware ADS-B
Mon 05:20:02 AM 40.6560 13.7550 121° Southeast 503 579 37,000  Level FlightAware ADS-B
Mon 05:20:38 AM 40.6120 13.8480 122° Southeast 501 577 37,000  Level FlightAware ADS-B
Mon 05:21:10 AM 40.5730 13.9310 122° Southeast 502 578 37,000  Level FlightAware ADS-B
Mon 05:21:46 AM 40.5310 14.0190 122° Southeast 503 579 37,000  Level FlightAware ADS-B
Mon 05:22:22 AM 40.4830 14.1170 123° Southeast 504 580 37,000  Level FlightAware ADS-B
Mon 05:22:58 AM 40.4400 14.2080 122° Southeast 504 580 37,000  Level FlightAware ADS-B
Mon 05:23:32 AM 40.3970 14.2990 122° Southeast 505 581 37,000  Level FlightAware ADS-B
Mon 05:24:08 AM 40.3510 14.3920 123° Southeast 506 582 37,000  Level FlightAware ADS-B
Mon 05:24:40 AM 40.3120 14.4720 123° Southeast 506 582 37,000  Level FlightAware ADS-B
Mon 05:25:18 AM 40.2630 14.5730 122° Southeast 504 580 37,000  Level FlightAware ADS-B
Mon 05:25:53 AM 40.2210 14.6610 122° Southeast 505 581 37,000  Level FlightAware ADS-B
Mon 05:26:29 AM 40.1750 14.7560 122° Southeast 506 582 37,000  Level FlightAware ADS-B
Mon 05:27:01 AM 40.1340 14.8390 123° Southeast 507 583 37,000  Level FlightAware ADS-B
Mon 05:27:37 AM 40.0890 14.9290 123° Southeast 509 586 37,000  Level FlightAware ADS-B
Mon 05:28:13 AM 40.0440 15.0230 122° Southeast 511 588 37,000  Level FlightAware ADS-B
Mon 05:28:45 AM 40.0030 15.1060 123° Southeast 513 590 37,000  Level FlightAware ADS-B
Mon 05:29:23 AM 39.9530 15.2070 123° Southeast 514 592 37,000  Level FlightAware ADS-B
Mon 05:29:59 AM 39.9070 15.2980 123° Southeast 512 589 37,000  Level FlightAware ADS-B
Mon 05:30:35 AM 39.8610 15.3940 122° Southeast 512 589 37,000  Level FlightAware ADS-B
Mon 05:31:07 AM 39.8190 15.4760 124° Southeast 511 588 37,000  Level FlightAware ADS-B
Mon 05:31:43 AM 39.7740 15.5660 123° Southeast 511 588 37,000  Level FlightAware ADS-B
Mon 05:32:19 AM 39.7280 15.6590 123° Southeast 510 587 37,000  Level FlightAware ADS-B
Mon 05:32:51 AM 39.6860 15.7410 124° Southeast 508 585 37,000  Level FlightAware ADS-B
Mon 05:33:29 AM 39.6370 15.8380 123° Southeast 508 585 37,000  Level FlightAware ADS-B
Mon 05:34:01 AM 39.6010 15.9270 118° Southeast 513 590 37,000  Level FlightAware ADS-B
Mon 05:34:37 AM 39.5670 16.0290 113° Southeast 515 593 37,000  Level FlightAware ADS-B
Mon 05:35:11 AM 39.5390 16.1270 110° East 516 594 37,000  Level FlightAware ADS-B
Mon 05:35:46 AM 39.5110 16.2250 110° East 514 592 37,000  Level FlightAware ADS-B
Mon 05:36:23 AM 39.4780 16.3340 111° Southeast 515 593 37,000  Level FlightAware ADS-B
Mon 05:36:59 AM 39.4460 16.4370 112° Southeast 515 593 37,000  Level FlightAware ADS-B
Mon 05:37:35 AM 39.4150 16.5370 112° Southeast 514 592 37,000  Level FlightAware ADS-B
Mon 05:38:07 AM 39.3870 16.6280 112° Southeast 511 588 37,000  Level FlightAware ADS-B
Mon 05:38:43 AM 39.3560 16.7290 112° Southeast 505 581 37,000  Level FlightAware ADS-B
Mon 05:39:19 AM 39.3250 16.8300 112° Southeast 502 578 37,000  Level FlightAware ADS-B
Mon 05:39:51 AM 39.2960 16.9220 112° Southeast 501 577 37,000  Level FlightAware ADS-B
Mon 05:40:29 AM 39.2640 17.0240 112° Southeast 502 578 37,000  Level FlightAware ADS-B
Mon 05:40:58 AM 39.2390 17.1020 112° Southeast 503 579 37,000  Level FlightAware ADS-B
Mon 05:41:46 AM 39.1970 17.2420 111° Southeast 503 579 37,000  Level FlightAware ADS-B
Mon 05:42:21 AM 39.1660 17.3390 112° Southeast 501 577 37,000  Level FlightAware ADS-B
Mon 05:42:53 AM 39.1380 17.4270 112° Southeast 498 573 37,000  Level FlightAware ADS-B
Mon 05:43:24 AM 39.1130 17.5060 112° Southeast 496 571 37,000  Level FlightAware ADS-B
Mon 05:44:02 AM 39.0890 17.5830 112° Southeast 494 568 37,000  Level FlightAware ADS-B
Mon 05:44:55 AM 39.0460 17.7180 112° Southeast 492 566 37,000  Level FlightAware ADS-B
Mon 05:45:27 AM 39.0140 17.8160 113° Southeast 491 565 37,000  Level FlightAware ADS-B
Mon 05:46:05 AM 38.9800 17.9230 112° Southeast 491 565 37,000  Level FlightAware ADS-B
Mon 05:46:43 AM 38.9400 18.0480 112° Southeast 493 567 37,000  Level FlightAware ADS-B
Mon 05:47:20 AM 38.9180 18.1150 113° Southeast 493 567 37,000  Level FlightAware ADS-B
Mon 05:47:52 AM 38.8890 18.2070 112° Southeast 493 567 37,000  Level FlightAware ADS-B
Mon 05:48:32 AM 38.8550 18.3100 113° Southeast 497 572 37,000  Level FlightAware ADS-B
Mon 05:49:09 AM 38.8220 18.4110 113° Southeast 497 572 37,000  Level FlightAware ADS-B
Mon 05:49:57 AM 38.7780 18.5490 112° Southeast 496 571 37,000  Level FlightAware ADS-B
Mon 05:50:26 AM 38.7520 18.6270 113° Southeast 495 570 37,000  Level FlightAware ADS-B
Mon 05:50:58 AM 38.7250 18.7080 113° Southeast 495 570 37,000  Level FlightAware ADS-B
Mon 05:51:35 AM 38.6890 18.8130 114° Southeast 496 571 37,000  Level FlightAware ADS-B
Mon 05:52:15 AM 38.6560 18.9160 112° Southeast 496 571 37,000  Level FlightAware ADS-B
Mon 05:52:48 AM 38.6240 19.0130 113° Southeast 496 571 37,000  Level FlightAware ADS-B
Mon 05:53:39 AM 38.5870 19.1210 114° Southeast 497 572 37,000  Level FlightAware ADS-B
Mon 05:54:13 AM 38.5490 19.2360 113° Southeast 502 578 37,000  Level FlightAware ADS-B
Mon 05:54:45 AM 38.5220 19.3150 114° Southeast 508 585 37,000  Level FlightAware ADS-B
Mon 05:55:22 AM 38.4820 19.4340 113° Southeast 509 586 37,000  Level FlightAware ADS-B
Mon 05:55:54 AM 38.4560 19.5110 113° Southeast 510 587 37,000  Level FlightAware ADS-B
Mon 05:56:35 AM 38.4230 19.6080 113° Southeast 510 587 37,000 164 Level FlightAware ADS-B
Mon 05:57:07 AM 38.3860 19.7180 113° Southeast 509 586 37,200 938 Climbing FlightAware ADS-B
Mon 05:57:39 AM 38.3550 19.8050 114° Southeast 505 581 38,000 1,111 Climbing FlightAware ADS-B
Mon 05:58:28 AM 38.3090 19.9410 113° Southeast 504 580 38,700 741 Climbing FlightAware ADS-B
Mon 05:59:00 AM 38.2810 20.0230 113° Southeast 507 583 39,000 277 Climbing FlightAware ADS-B
Mon 05:59:33 AM 38.2510 20.1080 114° Southeast 511 588 39,000  Level FlightAware ADS-B
Mon 06:00:06 AM 38.2200 20.1970 114° Southeast 514 592 39,000  Level FlightAware ADS-B
Mon 06:00:44 AM 38.1700 20.3400 114° Southeast 515 593 39,000  Level FlightAware ADS-B
Mon 06:01:17 AM 38.1380 20.4320 114° Southeast 518 596 39,000  Level FlightAware ADS-B
Mon 06:01:58 AM 38.0990 20.5430 114° Southeast 521 600 39,000 -82 Level FlightAware ADS-B
Mon 06:02:30 AM 38.0650 20.6340 115° Southeast 521 600 38,900  Descending FlightAware ADS-B
Mon 06:03:06 AM 38.0270 20.7340 116° Southeast 525 604 39,000 82 Climbing FlightAware ADS-B
Mon 06:03:43 AM 37.9890 20.8310 116° Southeast 527 606 39,000  Level FlightAware ADS-B
Mon 06:04:18 AM 37.9530 20.9260 116° Southeast 530 610 39,000  Level FlightAware ADS-B
Mon 06:04:48 AM 37.9190 21.0160 116° Southeast 533 613 39,000  Level FlightAware ADS-B
Mon 06:05:27 AM 37.8760 21.1280 116° Southeast 537 618 39,000  Level FlightAware ADS-B
Mon 06:06:02 AM 37.8390 21.2270 115° Southeast 539 620 39,000  Level FlightAware ADS-B
Mon 06:06:35 AM 37.8020 21.3210 116° Southeast 540 621 39,000  Level FlightAware ADS-B
Mon 06:07:12 AM 37.7620 21.4260 116° Southeast 542 624 39,000  Level FlightAware ADS-B
Mon 06:07:42 AM 37.7280 21.5150 116° Southeast 544 626 39,000  Level FlightAware ADS-B
Mon 06:08:21 AM 37.6840 21.6260 117° Southeast 545 627 39,000  Level FlightAware ADS-B
Mon 06:08:56 AM 37.6480 21.7200 116° Southeast 544 626 39,000  Level FlightAware ADS-B
Mon 06:09:31 AM 37.6070 21.8260 116° Southeast 543 625 39,000  Level FlightAware ADS-B
Mon 06:10:05 AM 37.5710 21.9160 117° Southeast 543 625 39,000  Level FlightAware ADS-B
Mon 06:10:41 AM 37.5290 22.0240 116° Southeast 542 624 39,000  Level FlightAware ADS-B
Mon 06:11:15 AM 37.4920 22.1170 117° Southeast 541 623 39,000  Level FlightAware ADS-B
Mon 06:12:03 AM 37.4480 22.2270 117° Southeast 541 623 39,000  Level FlightAware ADS-B
Mon 06:12:39 AM 37.4000 22.3580 115° Southeast 542 624 39,000  Level FlightAware ADS-B
Mon 06:13:17 AM 37.3670 22.4660 111° Southeast 541 623 39,000  Level FlightAware ADS-B
Mon 06:13:49 AM 37.3390 22.5610 110° East 540 621 39,000  Level FlightAware ADS-B
Mon 06:14:24 AM 37.3090 22.6640 110° East 538 619 39,000  Level FlightAware ADS-B
Mon 06:15:00 AM 37.2780 22.7690 110° East 536 617 39,000  Level FlightAware ADS-B
Mon 06:15:35 AM 37.2480 22.8740 110° East 535 616 39,000  Level FlightAware ADS-B
Mon 06:16:08 AM 37.2210 22.9670 110° East 535 616 39,000  Level FlightAware ADS-B
Mon 06:16:43 AM 37.1900 23.0690 111° Southeast 534 615 39,000  Level FlightAware ADS-B
Mon 06:17:20 AM 37.1580 23.1760 111° Southeast 536 617 39,000  Level FlightAware ADS-B
Mon 06:17:56 AM 37.1270 23.2810 110° East 536 617 39,000  Level FlightAware ADS-B
Mon 06:18:30 AM 37.0960 23.3830 111° Southeast 537 618 39,000  Level FlightAware ADS-B
Mon 06:19:03 AM 37.0680 23.4790 110° East 538 619 39,000  Level FlightAware ADS-B
Mon 06:19:38 AM 37.0370 23.5800 111° Southeast 536 617 39,000  Level FlightAware ADS-B
Mon 06:20:14 AM 37.0050 23.6850 111° Southeast 536 617 39,000  Level FlightAware ADS-B
Mon 06:20:52 AM 36.9720 23.7940 111° Southeast 534 615 39,000  Level FlightAware ADS-B
Mon 06:21:24 AM 36.9440 23.8840 111° Southeast 533 613 39,000  Level FlightAware ADS-B
Mon 06:22:00 AM 36.9120 23.9900 111° Southeast 531 611 39,000  Level FlightAware ADS-B
Mon 06:22:35 AM 36.8810 24.0900 111° Southeast 530 610 39,000  Level FlightAware ADS-B
Mon 06:23:10 AM 36.8500 24.1890 111° Southeast 527 606 39,000  Level FlightAware ADS-B
Mon 06:23:43 AM 36.8220 24.2800 111° Southeast 524 603 39,000  Level FlightAware ADS-B
Mon 06:24:19 AM 36.7910 24.3810 111° Southeast 522 601 39,000  Level FlightAware ADS-B
Mon 06:24:56 AM 36.7580 24.4880 111° Southeast 521 600 39,000  Level FlightAware ADS-B
Mon 06:25:31 AM 36.7260 24.5840 113° Southeast 518 596 39,000  Level FlightAware ADS-B
Mon 06:26:03 AM 36.6940 24.6680 115° Southeast 515 593 39,000  Level FlightAware ADS-B
Mon 06:26:40 AM 36.6570 24.7670 115° Southeast 511 588 39,000  Level FlightAware ADS-B
Mon 06:27:17 AM 36.6210 24.8660 114° Southeast 507 583 39,000  Level FlightAware ADS-B
Mon 06:27:48 AM 36.5910 24.9480 114° Southeast 506 582 39,000  Level FlightAware ADS-B
Mon 06:28:24 AM 36.5560 25.0430 115° Southeast 504 580 39,000  Level FlightAware ADS-B
Mon 06:29:01 AM 36.5200 25.1430 114° Southeast 503 579 39,000  Level FlightAware ADS-B
Mon 06:29:35 AM 36.4860 25.2330 115° Southeast 503 579 39,000  Level FlightAware ADS-B
Mon 06:30:10 AM 36.4530 25.3250 114° Southeast 504 580 39,000  Level FlightAware ADS-B
Mon 06:30:45 AM 36.4190 25.4170 115° Southeast 506 582 39,000  Level FlightAware ADS-B
Mon 06:31:21 AM 36.3850 25.5070 115° Southeast 507 583 39,000  Level FlightAware ADS-B
Mon 06:31:57 AM 36.3480 25.6070 115° Southeast 508 585 39,000  Level FlightAware ADS-B
Mon 06:32:29 AM 36.3170 25.6890 115° Southeast 510 587 39,000  Level FlightAware ADS-B
Mon 06:33:06 AM 36.2800 25.7880 115° Southeast 511 588 39,000  Level FlightAware ADS-B
Mon 06:33:41 AM 36.2450 25.8800 115° Southeast 511 588 39,000  Level FlightAware ADS-B
Mon 06:34:14 AM 36.2130 25.9650 115° Southeast 513 590 39,000  Level FlightAware ADS-B
Mon 06:34:57 AM 36.1690 26.0830 115° Southeast 515 593 39,000  Level FlightAware ADS-B
Mon 06:35:43 AM 36.1270 26.1930 115° Southeast 517 595 39,000  Level FlightAware ADS-B
Mon 06:36:11 AM 36.0930 26.2800 116° Southeast 517 595 39,000  Level FlightAware ADS-B
Mon 06:36:50 AM 36.0540 26.3820 115° Southeast 513 590 39,000  Level FlightAware ADS-B
Mon 06:37:20 AM 36.0250 26.4590 115° Southeast 513 590 39,000  Level FlightAware ADS-B
Mon 06:37:59 AM 35.9930 26.5480 114° Southeast 513 590 39,000  Level FlightAware ADS-B
Mon 06:38:34 AM 35.9470 26.6610 117° Southeast 512 589 39,000  Level FlightAware ADS-B
Mon 06:39:11 AM 35.9150 26.7490 114° Southeast 511 588 39,000  Level FlightAware ADS-B
Mon 06:39:44 AM 35.8760 26.8460 116° Southeast 515 593 39,000  Level FlightAware ADS-B
Mon 06:40:21 AM 35.8410 26.9340 116° Southeast 188 216 39,000  Level FlightAware ADS-B
Mon 06:40:57 AM 35.8000 27.0400 115° Southeast 515 593 39,000  Level FlightAware ADS-B
Mon 06:41:38 AM 35.7560 27.1510 116° Southeast 518 596 39,000  Level FlightAware ADS-B
Mon 06:42:14 AM 35.7180 27.2470 116° Southeast 519 597 39,000  Level FlightAware ADS-B
Mon 06:42:48 AM 35.6820 27.3370 116° Southeast 521 600 39,000  Level FlightAware ADS-B
Mon 06:43:24 AM 35.6450 27.4310 116° Southeast 523 602 39,000  Level FlightAware ADS-B
Mon 06:44:00 AM 35.6070 27.5270 116° Southeast 526 605 39,000  Level FlightAware ADS-B
Mon 06:44:32 AM 35.5730 27.6130 116° Southeast 528 608 39,000  Level FlightAware ADS-B
Mon 06:45:08 AM 35.5330 27.7130 116° Southeast 530 610 39,000  Level FlightAware ADS-B
Mon 06:45:44 AM 35.4940 27.8100 116° Southeast 532 612 39,000  Level FlightAware ADS-B
Mon 06:46:16 AM 35.4600 27.8940 116° Southeast 532 612 39,000  Level FlightAware ADS-B
Mon 06:46:48 AM 35.4260 27.9780 116° Southeast 533 613 39,000  Level FlightAware ADS-B
Mon 06:47:26 AM 35.3830 28.0860 116° Southeast 534 615 39,000  Level FlightAware ADS-B
Mon 06:48:02 AM 35.3430 28.1840 117° Southeast 534 615 39,000  Level FlightAware ADS-B
Mon 06:48:44 AM 35.3020 28.2850 116° Southeast 534 615 39,000  Level FlightAware ADS-B
Mon 06:49:16 AM 35.2630 28.3790 117° Southeast 534 615 39,000  Level FlightAware ADS-B
Mon 06:49:50 AM 35.2240 28.4730 117° Southeast 535 616 39,000  Level FlightAware ADS-B
Mon 06:50:30 AM 35.1790 28.5840 116° Southeast 535 616 39,000  Level FlightAware ADS-B
Mon 06:51:02 AM 35.1430 28.6710 117° Southeast 537 618 39,000  Level FlightAware ADS-B
Mon 06:51:47 AM 35.0950 28.7870 117° Southeast 537 618 39,000  Level FlightAware ADS-B
Mon 06:52:32 AM 35.0440 28.9090 117° Southeast 537 618 39,000  Level FlightAware ADS-B
Mon 06:53:12 AM 35.0000 29.0170 116° Southeast 538 619 39,000  Level FlightAware ADS-B
Mon 06:53:43 AM 34.9690 29.0900 117° Southeast 537 618 39,000  Level FlightAware ADS-B
Mon 06:54:20 AM 34.9210 29.2030 117° Southeast 536 617 39,000  Level FlightAware ADS-B
Mon 06:54:52 AM 34.8850 29.2890 117° Southeast 535 616 39,000  Level FlightAware ADS-B
Mon 06:55:30 AM 34.8500 29.3760 116° Southeast 535 616 39,000  Level FlightAware ADS-B
Mon 06:56:05 AM 34.8030 29.4840 118° Southeast 534 615 39,000  Level FlightAware ADS-B
Mon 06:56:49 AM 34.7540 29.5990 117° Southeast 534 615 39,000  Level FlightAware ADS-B
Mon 06:57:19 AM 34.7200 29.6820 116° Southeast 533 613 39,000  Level FlightAware ADS-B
Mon 06:57:55 AM 34.6800 29.7750 118° Southeast 533 613 39,000  Level FlightAware ADS-B
Mon 06:58:26 AM 34.6490 29.8460 118° Southeast 532 612 39,000  Level FlightAware ADS-B
Mon 06:59:25 AM 34.5810 30.0040 118° Southeast 532 612 39,000  Level FlightAware ADS-B
Mon 07:00:07 AM 34.5310 30.1120 119° Southeast 459 528 39,000  Level FlightAware ADS-B
Mon 07:00:42 AM 34.4860 30.2040 121° Southeast 532 612 39,000  Level FlightAware ADS-B
Mon 07:01:18 AM 34.4370 30.3040 121° Southeast 528 608 39,000  Level FlightAware ADS-B
Mon 07:01:52 AM 34.3960 30.3890 120° Southeast 528 608 39,000  Level FlightAware ADS-B
Mon 07:02:28 AM 34.3500 30.4840 120° Southeast 527 606 39,000  Level FlightAware ADS-B
Mon 07:03:07 AM 34.3030 30.5840 120° Southeast 527 606 39,000  Level FlightAware ADS-B
Mon 07:03:38 AM 34.2660 30.6610 120° Southeast 527 606 39,000  Level FlightAware ADS-B
Mon 07:04:13 AM 34.2210 30.7530 121° Southeast 526 605 39,000  Level FlightAware ADS-B
Mon 07:04:44 AM 34.1830 30.8330 120° Southeast 526 605 39,000  Level FlightAware ADS-B
Mon 07:05:23 AM 34.1330 30.9320 121° Southeast 526 605 39,000  Level FlightAware ADS-B
Mon 07:06:04 AM 34.0830 31.0370 120° Southeast 526 605 39,000  Level FlightAware ADS-B
Mon 07:06:40 AM 34.0370 31.1310 121° Southeast 527 606 39,000  Level FlightAware ADS-B
Mon 07:07:16 AM 33.9930 31.2200 121° Southeast 532 612 39,000  Level FlightAware ADS-B
Mon 07:07:50 AM 33.9490 31.3070 121° Southeast 533 613 39,000  Level FlightAware ADS-B
Mon 07:08:27 AM 33.9050 31.3960 121° Southeast 533 613 39,000  Level FlightAware ADS-B
Mon 07:09:01 AM 33.8600 31.4880 120° Southeast 534 615 39,000 -405 Level FlightAware ADS-B
Mon 07:09:41 AM 33.8090 31.5920 121° Southeast 534 615 38,500 -1,120 Descending FlightAware ADS-B
Mon 07:10:16 AM 33.7640 31.6790 122° Southeast 536 617 37,600 -1,437 Descending FlightAware ADS-B
Mon 07:10:52 AM 33.7190 31.7710 120° Southeast 540 621 36,800 -1,294 Descending FlightAware ADS-B
Mon 07:11:07 AM 33.7030 31.8050 119° Southeast 541 623 36,500 -1,371 Descending FlightAware ADS-B
Mon 07:12:02 AM 33.6290 31.9520 121° Southeast 542 624 35,200 -1,348 Descending FlightAware ADS-B
Mon 07:12:36 AM 33.5840 32.0410 121° Southeast 545 627 34,500 -1,286 Descending FlightAware ADS-B
Mon 07:13:12 AM 33.5360 32.1350 121° Southeast 546 628 33,700 -1,200 Descending FlightAware ADS-B
Mon 07:13:46 AM 33.4930 32.2210 121° Southeast 547 629 33,100 -1,291 Descending FlightAware ADS-B
Mon 07:14:31 AM 33.4320 32.3410 121° Southeast 553 636 32,000 -1,737 Descending FlightAware ADS-B
Mon 07:15:02 AM 33.3900 32.4230 122° Southeast 548 631 30,900 -985 Descending FlightAware ADS-B
Mon 07:15:38 AM 33.3430 32.5160 121° Southeast 542 624 30,900 -592 Level FlightAware ADS-B
Mon 07:16:13 AM 33.2960 32.6070 122° Southeast 551 634 30,200 -1,075 Descending FlightAware ADS-B
Mon 07:16:45 AM 33.2540 32.6930 120° Southeast 546 628 29,700 -1,231 Descending FlightAware ADS-B
Mon 07:17:31 AM 33.1910 32.8130 122° Southeast 545 627 28,600 -1,451 Descending FlightAware ADS-B
Mon 07:18:16 AM 33.2140 32.7670 301° West 548 631 27,500 -1,600 Descending FlightAware ADS-B
Mon 07:18:46 AM 33.0930 33.0040 121° Southeast 550 633 26,600 -1,421 Descending FlightAware ADS-B
Mon 07:19:32 AM 33.0370 33.1100 122° Southeast 549 632 25,700 -643 Descending FlightAware ADS-B
Mon 07:20:10 AM 32.9940 33.1930 122° Southeast 549 632 25,700 -686 Level FlightAware ADS-B
Mon 07:20:42 AM 32.9440 33.2910 121° Southeast 537 618 24,900 -1,714 Descending FlightAware ADS-B
Mon 07:21:13 AM 32.8990 33.3760 122° Southeast 529 609 23,900 -1,606 Descending FlightAware ADS-B
Mon 07:21:53 AM 32.8470 33.4760 122° Southeast 520 598 23,000 -1,971 Descending FlightAware ADS-B
Mon 07:22:23 AM 32.8090 33.5470 122° Southeast 496 571 21,600 -2,294 Descending FlightAware ADS-B
Mon 07:23:01 AM 32.7660 33.6280 122° Southeast 449 517 20,400 -2,000 Descending FlightAware ADS-B
Mon 07:23:38 AM 32.7270 33.7030 122° Southeast 422 486 19,100 -2,000 Descending FlightAware ADS-B
Mon 07:24:13 AM 32.6920 33.7700 122° Southeast 403 464 18,000 -1,840 Descending FlightAware ADS-B
Mon 07:24:53 AM 32.6530 33.8450 122° Southeast 377 434 16,800 -1,658 Descending FlightAware ADS-B
Mon 07:25:29 AM 32.6210 33.9040 123° Southeast 361 415 15,900 -1,543 Descending FlightAware ADS-B
Mon 07:26:03 AM 32.5910 33.9620 122° Southeast 351 404 15,000 -1,565 Descending FlightAware ADS-B
Mon 07:26:38 AM 32.5610 34.0170 123° Southeast 342 394 14,100 -1,412 Descending FlightAware ADS-B
Mon 07:26:54 AM 32.5460 34.0400 128° Southeast 340 391 13,800 -1,286 Descending FlightAware ADS-B
Mon 07:27:06 AM 32.5290 34.0510 151° Southeast 331 381 13,500 -1,224 Descending FlightAware ADS-B
Mon 07:27:43 AM 32.4760 34.0720 162° South 319 367 12,800 -1,151 Descending FlightAware ADS-B
Mon 07:28:19 AM 32.4260 34.0920 161° South 308 354 12,100 -1,455 Descending FlightAware ADS-B
Mon 07:28:49 AM 32.3850 34.1090 161° South 309 356 11,200 -1,660 Descending FlightAware ADS-B
Mon 07:29:06 AM 32.3660 34.1250 145° Southeast 309 356 10,800 -1,400 Descending FlightAware ADS-B
Mon 07:29:19 AM 32.3550 34.1420 127° Southeast 306 352 10,500 -735 Descending FlightAware ADS-B
Mon 07:29:55 AM 32.3330 34.1980 115° Southeast 294 338 10,200 -500 Descending FlightAware ADS-B
Mon 07:30:31 AM 32.3130 34.2490 115° Southeast 294 338 9,900 -656 Descending FlightAware ADS-B
Mon 07:30:59 AM 32.2970 34.2900 115° Southeast 287 330 9,500 -1,125 Descending FlightAware ADS-B
Mon 07:31:19 AM 32.2860 34.3170 116° Southeast 283 326 9,000 -679 Descending FlightAware ADS-B
Mon 07:31:52 AM 32.2710 34.3580 113° Southeast 281 323 8,900 -105 Descending FlightAware ADS-B
Mon 07:32:16 AM 32.2600 34.3870 114° Southeast 281 323 8,900  Level FlightAware ADS-B
Mon 07:32:40 AM 32.2500 34.4150 113° Southeast 281 323 8,900  Level FlightAware ADS-B
Mon 07:33:04 AM 32.2390 34.4440 114° Southeast 281 323 8,900 -938 Level FlightAware ADS-B
Mon 07:35:00 AM 32.0783 34.7125 115° Southeast  Level FlightAware Approximate
Mon 07:36:00 AM 32.0052 34.8581 125° Southeast  Level FlightAware Approximate
Mon 07:36:20 AM 32.1040 34.6970 125° Southeast 4,900  Level FlightAware ADS-B
Mon 07:36:56 AM 32.0840 34.7340 123° Southeast 231 266 4,900  Level FlightAware ADS-B
Mon 07:37:14 AM 32.0720 34.7560 123° Southeast 225 259 4,900  Level FlightAware ADS-B
Mon 07:37:32 AM 32.0610 34.7740 126° Southeast 230 265 4,900 -200 Level FlightAware ADS-B
Mon 07:37:44 AM 32.0510 34.7850 137° Southeast 231 266 4,800 -800 Descending FlightAware ADS-B
Mon 07:38:02 AM 32.0390 34.7990 135° Southeast 228 262 4,500 -500 Descending FlightAware ADS-B
Mon 07:38:32 AM 32.0140 34.8270 136° Southeast 235 270 4,400 -107 Descending FlightAware ADS-B
Mon 07:38:58 AM 31.9970 34.8470 135° Southeast 235 270 4,400 -103 Level FlightAware ADS-B
Mon 07:39:30 AM 31.9980 34.8460 320° Northwest 217 250 4,300 -1,277 Descending FlightAware ADS-B
Mon 07:39:45 AM 31.9730 34.8890 124° Southeast 185 213 3,400 -2,308 Descending FlightAware ADS-B
Mon 07:40:09 AM 31.9770 34.9140 79° East 175 201 2,800 -735 Descending FlightAware ADS-B
Mon 07:40:34 AM 31.9810 34.9330 76° East 175 201 2,800  Level FlightAware ADS-B
Mon 07:43:00 AM 32.0000 34.8667 125° Southeast  Level FlightAware Approximate

Login

Don't have an account? Register now (free) for customized features, flight alerts, and more!